M I D A S
Marine Information and Data Acquisition System
Tripno 552 of the Zeeleeuw from 2003-08-20 07:26:36 to 2003-08-20 14:04:50
Back to CruiseResearch ActivitiesStationsMapUnderway DataData graphs

EquipmentUnitsComment
TimeDGPSUTC
LatitudeDGPSDM.mWGS84
LongitudeDGPSDM.mWGS84
TemperatureSBE03/SBE38deg celciusITS90
ConductivitySBE21S/mITS90
SalinitySBE21 Practical Salinity Units
ChlorophylAChelsea fluorimeterg/lCalibrated in Aceton
Missing or incorrect values are displayed as -999
Sea surface data collected by the RV Zeeleeuw from 2003-08-20 07:26:36 to 2003-08-20 14:04:50
                                                                                    Next 1000 lines
Time Latitude Longitude Temperature Conductivity Salinity ChlorophylA
2003-08-20 07:26:44 51°11.45 2°46.14 -999 4.803536 33.946754 1.578409
2003-08-20 07:26:50 51°11.45 2°46.11 -999 4.821371 34.087605 1.5447
2003-08-20 07:26:54 51°11.44 2°46.1 -999 4.821371 34.087605 1.5447
2003-08-20 07:27:00 51°11.43 2°46.07 -999 4.821688 34.090665 1.5447
2003-08-20 07:27:06 51°11.43 2°46.04 -999 4.819894 34.076437 1.578409
2003-08-20 07:27:10 51°11.42 2°46.02 48.23906 4.821477 34.087343 1.5447
2003-08-20 07:27:14 51°11.41 2°46 48.345618 4.821055 34.084545 1.612118
2003-08-20 07:27:20 51°11.4 2°45.97 48.072161 4.820421 34.078424 1.578409
2003-08-20 07:27:26 51°11.39 2°45.94 48.072161 4.820421 34.078424 1.578409
2003-08-20 07:27:30 51°11.39 2°45.92 49.309351 4.811451 34.008397 1.578409
2003-08-20 07:27:34 51°11.38 2°45.9 -999 4.8162 34.0455 1.612118
2003-08-20 07:27:40 51°11.37 2°45.87 49.377136 4.822321 34.094588 1.645828
2003-08-20 07:27:46 51°11.36 2°45.84 49.823333 4.816939 34.051358 1.645828
2003-08-20 07:27:50 51°11.36 2°45.82 49.672803 4.821688 34.088467 1.645828
2003-08-20 07:27:54 51°11.35 2°45.8 49.672803 4.821688 34.088467 1.645828
2003-08-20 07:28:00 51°11.34 2°45.76 -999 4.805013 33.956274 1.679537
2003-08-20 07:28:06 51°11.33 2°45.73 -999 4.797837 33.899406 1.679537
2003-08-20 07:28:10 51°11.33 2°45.71 -999 4.815883 34.039149 1.612118
2003-08-20 07:28:14 51°11.32 2°45.69 -999 4.820844 34.081222 1.5447
2003-08-20 07:28:20 51°11.31 2°45.66 -999 4.81715 34.051385 1.612118
2003-08-20 07:28:24 51°11.3 2°45.64 -999 4.81715 34.051385 1.612118
2003-08-20 07:28:30 51°11.29 2°45.61 -999 4.817889 34.05834 1.612118
2003-08-20 07:28:34 51°11.29 2°45.59 -999 4.820633 34.079549 1.612118
2003-08-20 07:28:40 51°11.28 2°45.55 -999 4.798048 33.900532 1.612118
2003-08-20 07:28:44 51°11.27 2°45.53 -999 4.821793 34.087106 1.578409
2003-08-20 07:28:50 51°11.26 2°45.5 -999 4.822743 34.094638 1.51099
2003-08-20 07:28:54 51°11.26 2°45.48 -999 4.822743 34.094638 1.51099
2003-08-20 07:29:00 51°11.25 2°45.45 49.551459 4.811556 34.006493 1.612118
2003-08-20 07:29:04 51°11.24 2°45.43 49.43581 4.816411 34.045527 1.612118
2003-08-20 07:29:10 51°11.23 2°45.39 -999 4.82021 34.076201 1.5447
2003-08-20 07:29:14 51°11.22 2°45.37 49.602363 4.822638 34.096 1.5447
2003-08-20 07:29:20 51°11.21 2°45.34 48.88448 4.825276 34.116924 1.578409
2003-08-20 07:29:26 51°11.2 2°45.31 48.88448 4.825276 34.116924 1.578409
2003-08-20 07:29:30 51°11.2 2°45.29 49.271445 4.800053 33.917514 1.5447
2003-08-20 07:29:34 51°11.19 2°45.27 49.495917 4.818733 34.064485 1.578409
2003-08-20 07:29:40 51°11.18 2°45.23 -999 4.813878 34.027092 1.578409
2003-08-20 07:29:44 51°11.18 2°45.21 -999 4.825593 34.119986 1.5447
2003-08-20 07:29:50 51°11.17 2°45.18 -999 4.825171 34.118838 1.477281
2003-08-20 07:29:54 51°11.16 2°45.16 -999 4.825171 34.118838 1.477281
2003-08-20 07:30:00 51°11.15 2°45.13 -999 4.822954 34.101809 1.51099
2003-08-20 07:30:04 51°11.14 2°45.11 49.357894 4.8162 34.047696 1.5447
2003-08-20 07:30:10 51°11.13 2°45.08 -999 4.811451 34.013332 1.5447
2003-08-20 07:30:14 51°11.13 2°45.06 -999 4.821688 34.093414 1.612118
2003-08-20 07:30:20 51°11.12 2°45.02 -999 4.826332 34.130247 1.5447
2003-08-20 07:30:26 51°11.11 2°44.99 -999 4.826332 34.130247 1.5447
2003-08-20 07:30:30 51°11.1 2°44.97 49.940765 4.82707 34.137759 1.5447
2003-08-20 07:30:34 51°11.1 2°44.95 -999 4.823693 34.111518 1.51099
2003-08-20 07:30:40 51°11.09 2°44.92 49.682251 4.822216 34.101448 1.51099
2003-08-20 07:30:44 51°11.08 2°44.9 -999 4.809762 34.001589 1.578409
2003-08-20 07:30:50 51°11.07 2°44.86 47.620351 4.826859 34.139387 1.5447
2003-08-20 07:30:54 51°11.06 2°44.84 47.620351 4.826859 34.139387 1.5447
2003-08-20 07:31:00 51°11.05 2°44.81 47.751106 4.82116 34.094726 1.51099
2003-08-20 07:31:06 51°11.04 2°44.78 -999 4.823904 34.117044 1.5447
2003-08-20 07:31:10 51°11.04 2°44.76 47.059337 4.828126 34.151639 1.612118
2003-08-20 07:31:14 51°11.03 2°44.74 49.18466 4.829076 34.161931 1.612118
2003-08-20 07:31:20 51°11.02 2°44.71 -999 4.82496 34.128719 1.51099
2003-08-20 07:31:26 51°11.01 2°44.67 -999 4.82496 34.128719 1.51099
2003-08-20 07:31:30 51°11.01 2°44.65 -999 4.829498 34.163077 1.612118
2003-08-20 07:31:34 51°11 2°44.63 49.843027 4.828126 34.154944 1.578409
2003-08-20 07:31:40 51°10.99 2°44.6 -999 4.81715 34.067311 1.612118
2003-08-20 07:31:46 51°10.98 2°44.57 48.563254 4.828126 34.155495 1.578409
2003-08-20 07:31:50 51°10.97 2°44.55 47.976229 4.829076 34.163584 1.578409
2003-08-20 07:31:54 51°10.97 2°44.52 47.976229 4.829076 34.163584 1.578409
2003-08-20 07:32:00 51°10.96 2°44.49 -999 4.831187 34.181439 1.5447
2003-08-20 07:32:06 51°10.95 2°44.46 48.163137 4.830976 34.178661 1.5447
2003-08-20 07:32:10 51°10.94 2°44.44 -999 4.807335 33.992211 1.612118
2003-08-20 07:32:14 51°10.94 2°44.42 48.574591 4.827282 34.150999 1.612118
2003-08-20 07:32:20 51°10.93 2°44.38 48.507723 4.822533 34.114413 1.645828
2003-08-20 07:32:24 51°10.92 2°44.36 48.507723 4.822533 34.114413 1.645828
2003-08-20 07:32:30 51°10.92 2°44.33 49.262759 4.827598 34.154062 1.612118
2003-08-20 07:32:34 51°10.91 2°44.31 49.611265 4.821266 34.105464 1.645828
2003-08-20 07:32:40 51°10.9 2°44.27 -999 4.830342 34.176943 1.612118
2003-08-20 07:32:44 51°10.9 2°44.25 -999 4.830237 34.176657 1.578409
2003-08-20 07:32:50 51°10.89 2°44.22 -999 4.831503 34.187813 1.578409
2003-08-20 07:32:54 51°10.89 2°44.19 -999 4.831503 34.187813 1.578409
2003-08-20 07:33:00 51°10.88 2°44.16 -999 4.832136 34.191184 1.612118
2003-08-20 07:33:04 51°10.87 2°44.14 -999 4.825382 34.139228 1.612118
2003-08-20 07:33:10 51°10.87 2°44.1 -999 4.823905 34.128603 1.578409
2003-08-20 07:33:14 51°10.86 2°44.08 -999 4.827387 34.155693 1.578409
2003-08-20 07:33:20 51°10.86 2°44.05 -999 4.830553 34.180273 1.612118
2003-08-20 07:33:26 51°10.85 2°44.01 -999 4.830553 34.180273 1.612118
2003-08-20 07:33:30 51°10.84 2°43.99 -999 4.828443 34.165724 1.645828
2003-08-20 07:33:34 51°10.84 2°43.97 -999 4.820316 34.100678 1.612118
2003-08-20 07:33:40 51°10.83 2°43.94 49.659861 4.83372 34.208166 1.612118
2003-08-20 07:33:44 51°10.83 2°43.91 33.487202 4.834142 34.209862 4.780802
2003-08-20 07:33:50 51°10.82 2°43.88 37.268022 4.836464 34.230505 1.915503
2003-08-20 07:33:54 51°10.81 2°43.86 37.268022 4.836464 34.230505 1.915503
2003-08-20 07:34:00 51°10.81 2°43.82 37.891861 4.834986 34.216013 1.679537
2003-08-20 07:34:06 51°10.8 2°43.79 37.500761 4.836253 34.224411 1.612118
2003-08-20 07:34:10 51°10.8 2°43.77 36.429346 4.836253 34.22662 1.645828
2003-08-20 07:34:14 51°10.8 2°43.74 38.481995 4.836041 34.22384 1.578409
2003-08-20 07:34:20 51°10.79 2°43.71 37.856583 4.838152 34.230105 1.612118
2003-08-20 07:34:26 51°10.79 2°43.67 37.856583 4.838152 34.230105 1.612118
2003-08-20 07:34:30 51°10.78 2°43.65 38.714312 4.836569 34.219748 1.645828
2003-08-20 07:34:34 51°10.78 2°43.63 39.275198 4.836147 34.221917 1.814375
2003-08-20 07:34:40 51°10.77 2°43.59 39.092637 4.835408 34.221021 1.780665
2003-08-20 07:34:44 51°10.77 2°43.57 38.166289 4.835514 34.22683 1.814375
2003-08-20 07:34:50 51°10.77 2°43.54 37.397601 4.835831 34.231001 1.780665
2003-08-20 07:34:54 51°10.76 2°43.51 37.397601 4.835831 34.231001 1.780665
2003-08-20 07:35:00 51°10.76 2°43.48 35.401057 4.834775 34.225382 1.746956
2003-08-20 07:35:06 51°10.76 2°43.44 36.61339 4.834881 34.227878 1.713247
2003-08-20 07:35:10 51°10.76 2°43.42 38.2075 4.834564 34.228126 1.780665
2003-08-20 07:35:14 51°10.76 2°43.39 36.058244 4.83562 34.239825 1.780665
2003-08-20 07:35:20 51°10.77 2°43.36 37.466752 4.834775 34.233118 1.746956
2003-08-20 07:35:24 51°10.77 2°43.34 37.466752 4.834775 34.233118 1.746956
2003-08-20 07:35:30 51°10.78 2°43.3 36.724428 4.833826 34.228337 1.746956
2003-08-20 07:35:34 51°10.78 2°43.28 38.173376 4.833509 34.225821 1.746956
2003-08-20 07:35:40 51°10.79 2°43.25 38.551991 4.83467 34.237255 1.848084
2003-08-20 07:35:44 51°10.79 2°43.22 38.601003 4.833615 34.231635 1.814375
2003-08-20 07:35:50 51°10.8 2°43.19 38.138062 4.83372 34.235791 1.780665
2003-08-20 07:35:54 51°10.81 2°43.17 38.138062 4.83372 34.235791 1.780665
2003-08-20 07:36:00 51°10.82 2°43.14 38.073241 4.83372 34.236897 1.814375
2003-08-20 07:36:04 51°10.82 2°43.11 38.452675 4.833298 34.237414 1.814375
2003-08-20 07:36:10 51°10.83 2°43.08 39.182918 4.833298 34.239626 1.780665
2003-08-20 07:36:14 51°10.84 2°43.06 38.914891 4.828866 34.206612 1.881794
2003-08-20 07:36:20 51°10.84 2°43.03 38.13396 4.831926 34.237573 1.949212
2003-08-20 07:36:26 51°10.85 2°42.99 38.13396 4.831926 34.237573 1.949212
2003-08-20 07:36:30 51°10.86 2°42.97 39.554506 4.833932 34.255175 1.848084
2003-08-20 07:36:34 51°10.86 2°42.95 38.849683 4.833826 34.255443 1.949212
2003-08-20 07:36:40 51°10.87 2°42.91 38.111701 4.832454 34.247857 1.915503
2003-08-20 07:36:44 51°10.87 2°42.89 37.487588 4.83351 34.260125 2.050341
2003-08-20 07:36:50 51°10.88 2°42.86 38.626541 4.832243 34.256147 2.117759
2003-08-20 07:36:54 51°10.89 2°42.84 38.626541 4.832243 34.256147 2.117759
2003-08-20 07:37:00 51°10.89 2°42.8 38.097006 4.831927 34.258614 2.151469
2003-08-20 07:37:04 51°10.9 2°42.78 40.218697 4.832032 34.264442 2.185178
2003-08-20 07:37:10 51°10.91 2°42.75 40.080623 4.831083 34.2652 2.286306
2003-08-20 07:37:14 51°10.91 2°42.72 39.066712 4.830133 34.26485 2.353725
2003-08-20 07:37:20 51°10.92 2°42.69 38.647268 4.828867 34.262535 2.421144
2003-08-20 07:37:26 51°10.92 2°42.65 38.647268 4.828867 34.262535 2.421144
2003-08-20 07:37:30 51°10.93 2°42.63 39.001658 4.827073 34.255464 2.454853
2003-08-20 07:37:34 51°10.93 2°42.61 37.861209 4.827495 34.267149 2.488563
2003-08-20 07:37:40 51°10.94 2°42.58 37.553428 4.825279 34.260046 2.555982
2003-08-20 07:37:44 51°10.94 2°42.55 39.068346 4.823379 34.253796 2.65711
2003-08-20 07:37:50 51°10.95 2°42.52 37.435776 4.824963 34.273076 2.690819
2003-08-20 07:37:54 51°10.95 2°42.49 37.435776 4.824963 34.273076 2.690819
2003-08-20 07:38:00 51°10.96 2°42.46 38.539781 4.823802 34.27216 2.758238
2003-08-20 07:38:06 51°10.96 2°42.43 37.484543 4.823063 34.273498 2.893076
2003-08-20 07:38:10 51°10.97 2°42.4 37.983622 4.821586 34.268947 2.994204
2003-08-20 07:38:14 51°10.97 2°42.38 39.062154 4.821269 34.273097 3.129042
2003-08-20 07:38:20 51°10.98 2°42.35 38.053129 4.819053 34.264321 3.162751
2003-08-20 07:38:26 51°10.98 2°42.31 38.053129 4.819053 34.264321 3.162751
2003-08-20 07:38:30 51°10.98 2°42.29 38.021838 4.819687 34.273824 3.263879
2003-08-20 07:38:34 51°10.99 2°42.27 38.387061 4.819476 34.278263 3.297589
2003-08-20 07:38:40 51°10.99 2°42.23 39.302185 4.817365 34.265318 3.466136
2003-08-20 07:38:46 51°11 2°42.2 38.431548 4.817893 34.277324 3.398717
2003-08-20 07:38:50 51°11 2°42.18 40.530797 4.817471 34.277297 3.634683
2003-08-20 07:38:54 51°11.01 2°42.15 40.530797 4.817471 34.277297 3.634683
2003-08-20 07:39:00 51°11.01 2°42.12 38.692402 4.816415 34.271658 3.567264
2003-08-20 07:39:04 51°11.02 2°42.1 39.130457 4.816838 34.280042 3.533554
2003-08-20 07:39:10 51°11.02 2°42.06 38.35796 4.816732 34.280314 3.634683
2003-08-20 07:39:14 51°11.03 2°42.04 39.307732 4.816732 34.2831 3.735811
2003-08-20 07:39:20 51°11.03 2°42.01 38.484021 4.816627 34.2817 3.735811
2003-08-20 07:39:24 51°11.03 2°41.98 38.484021 4.816627 34.2817 3.735811
2003-08-20 07:39:30 51°11.03 2°41.95 38.769977 4.816838 34.286173 3.76952
2003-08-20 07:39:34 51°11.03 2°41.92 41.034921 4.816521 34.281972 3.836939
2003-08-20 07:39:40 51°11.03 2°41.89 39.363804 4.815888 34.278031 3.870648
2003-08-20 07:39:46 51°11.02 2°41.86 38.457551 4.816732 34.287002 3.870648
2003-08-20 07:39:50 51°11.02 2°41.84 39.133346 4.816943 34.289245 3.904358
2003-08-20 07:39:54 51°11.01 2°41.82 39.133346 4.816943 34.289245 3.904358
2003-08-20 07:40:00 51°11 2°41.78 37.440074 4.817893 34.297388 3.904358
2003-08-20 07:40:06 51°10.99 2°41.75 39.1303 4.818421 34.301045 3.904358
2003-08-20 07:40:10 51°10.98 2°41.74 38.215949 4.818421 34.299929 3.904358
2003-08-20 07:40:14 51°10.98 2°41.72 38.346735 4.816943 34.288688 3.938067
2003-08-20 07:40:20 51°10.97 2°41.69 39.37204 4.818315 34.297413 3.904358
2003-08-20 07:40:26 51°10.95 2°41.66 39.37204 4.818315 34.297413 3.904358
2003-08-20 07:40:30 51°10.94 2°41.64 38.271831 4.817788 34.293757 3.870648
2003-08-20 07:40:34 51°10.94 2°41.62 37.003428 4.818421 34.301045 3.836939
2003-08-20 07:40:40 51°10.92 2°41.6 37.90535 4.818315 34.30076 3.836939
2003-08-20 07:40:44 51°10.91 2°41.58 38.7977 4.818738 34.30692 3.904358
2003-08-20 07:40:50 51°10.9 2°41.55 38.693507 4.81916 34.31085 3.904358
2003-08-20 07:40:54 51°10.89 2°41.53 38.693507 4.81916 34.31085 3.904358
2003-08-20 07:41:00 51°10.87 2°41.51 38.941777 4.819793 34.31814 3.870648
2003-08-20 07:41:06 51°10.86 2°41.48 38.457076 4.818949 34.313628 3.938067
2003-08-20 07:41:10 51°10.85 2°41.46 38.622812 4.819582 34.31757 3.971777
2003-08-20 07:41:14 51°10.84 2°41.45 38.567362 4.819477 34.321193 4.005486
2003-08-20 07:41:20 51°10.83 2°41.42 38.79483 4.819582 34.323711 4.072905
2003-08-20 07:41:26 51°10.81 2°41.39 38.79483 4.819582 34.323711 4.072905
2003-08-20 07:41:30 51°10.81 2°41.37 39.957891 4.819688 34.326788 4.106614
2003-08-20 07:41:34 51°10.8 2°41.36 39.012415 4.82011 34.331837 4.207742
2003-08-20 07:41:40 51°10.78 2°41.33 38.908246 4.820004 34.332111 4.140324
2003-08-20 07:41:44 51°10.77 2°41.31 38.724539 4.819266 34.327325 4.106614
2003-08-20 07:41:50 51°10.76 2°41.28 38.650396 4.819688 34.328464 4.174033
2003-08-20 07:41:54 51°10.75 2°41.26 38.650396 4.819688 34.328464 4.174033
2003-08-20 07:42:00 51°10.74 2°41.24 38.673739 4.819266 34.325649 4.207742
2003-08-20 07:42:06 51°10.72 2°41.21 39.629731 4.818632 34.321706 4.241452
2003-08-20 07:42:10 51°10.71 2°41.19 39.088992 4.818632 34.322265 4.174033
2003-08-20 07:42:14 51°10.7 2°41.17 39.948533 4.818949 34.323119 4.207742
2003-08-20 07:42:20 51°10.69 2°41.15 39.428005 4.819477 34.326777 4.207742
2003-08-20 07:42:26 51°10.68 2°41.12 39.428005 4.819477 34.326777 4.207742
2003-08-20 07:42:30 51°10.67 2°41.1 39.6056 4.818843 34.323393 4.241452
2003-08-20 07:42:34 51°10.66 2°41.09 39.316255 4.819371 34.329285 4.241452
2003-08-20 07:42:40 51°10.64 2°41.06 40.725939 4.818632 34.322265 4.174033
2003-08-20 07:42:46 51°10.63 2°41.03 38.416785 4.818316 34.320293 4.275161
2003-08-20 07:42:50 51°10.62 2°41.01 38.927737 4.818843 34.322276 4.241452
2003-08-20 07:42:54 51°10.61 2°41 38.927737 4.818843 34.322276 4.241452
2003-08-20 07:43:00 51°10.59 2°40.97 39.067403 4.818632 34.321148 4.140324
2003-08-20 07:43:06 51°10.58 2°40.94 39.744511 4.818632 34.319473 4.275161
2003-08-20 07:43:10 51°10.57 2°40.92 40.028303 4.818632 34.318914 4.207742
2003-08-20 07:43:14 51°10.56 2°40.91 38.282939 4.818316 34.315826 4.174033
2003-08-20 07:43:20 51°10.55 2°40.88 38.696822 4.819582 34.32427 4.275161
2003-08-20 07:43:26 51°10.53 2°40.85 38.696822 4.819582 34.32427 4.275161
2003-08-20 07:43:30 51°10.52 2°40.84 38.352284 4.819054 34.321729 4.275161
2003-08-20 07:43:34 51°10.51 2°40.82 37.414541 4.819582 34.325387 4.308871
2003-08-20 07:43:40 51°10.5 2°40.79 37.846404 4.819477 34.327336 4.308871
2003-08-20 07:43:44 51°10.49 2°40.77 36.657966 4.818843 34.323951 4.275161
2003-08-20 07:43:50 51°10.47 2°40.75 37.943635 4.81916 34.327598 4.34258
2003-08-20 07:43:54 51°10.46 2°40.73 37.943635 4.81916 34.327598 4.34258
2003-08-20 07:44:00 51°10.45 2°40.7 38.874638 4.818949 34.327029 4.275161
2003-08-20 07:44:04 51°10.44 2°40.68 39.633664 4.819055 34.325638 4.308871
2003-08-20 07:44:10 51°10.43 2°40.66 39.1379 4.817788 34.316635 4.409999
2003-08-20 07:44:14 51°10.42 2°40.64 37.736723 4.819055 34.324521 4.34258
2003-08-20 07:44:20 51°10.4 2°40.61 39.373511 4.818843 34.321717 4.34258
2003-08-20 07:44:26 51°10.39 2°40.59 39.373511 4.818843 34.321717 4.34258
2003-08-20 07:44:30 51°10.38 2°40.57 39.480024 4.819054 34.322287 4.308871
2003-08-20 07:44:34 51°10.37 2°40.55 40.342832 4.81916 34.32313 4.308871
2003-08-20 07:44:40 51°10.35 2°40.52 39.121883 4.818632 34.317797 4.308871
2003-08-20 07:44:44 51°10.34 2°40.51 39.492374 4.81821 34.311634 4.34258
2003-08-20 07:44:50 51°10.33 2°40.48 38.450743 4.818421 34.31332 4.34258
2003-08-20 07:44:54 51°10.32 2°40.46 38.450743 4.818421 34.31332 4.34258
2003-08-20 07:45:00 51°10.31 2°40.44 38.010216 4.818843 34.316134 4.34258
2003-08-20 07:45:06 51°10.29 2°40.41 36.950526 4.818527 34.31193 4.34258
2003-08-20 07:45:10 51°10.28 2°40.39 38.713713 4.818421 34.309971 4.308871
2003-08-20 07:45:14 51°10.27 2°40.37 40.476109 4.818527 34.309698 4.34258
2003-08-20 07:45:20 51°10.26 2°40.35 37.066187 4.818421 34.306623 4.308871
2003-08-20 07:45:26 51°10.24 2°40.32 37.066187 4.818421 34.306623 4.308871
2003-08-20 07:45:30 51°10.23 2°40.3 39.200585 4.818738 34.30971 4.308871
2003-08-20 07:45:34 51°10.22 2°40.28 39.326688 4.818104 34.30521 4.308871
2003-08-20 07:45:40 51°10.21 2°40.26 39.196694 4.817366 34.29652 4.308871
2003-08-20 07:45:46 51°10.2 2°40.23 38.316033 4.81821 34.303821 4.34258
2003-08-20 07:45:50 51°10.19 2°40.21 37.952622 4.818738 34.308036 4.308871
2003-08-20 07:45:54 51°10.18 2°40.19 37.952622 4.818738 34.308036 4.308871
2003-08-20 07:46:00 51°10.16 2°40.17 38.807664 4.817788 34.301565 4.376289
2003-08-20 07:46:06 51°10.15 2°40.14 40.25005 4.817893 34.302408 4.34258
2003-08-20 07:46:10 51°10.14 2°40.12 40.159799 4.817788 34.301007 4.275161
2003-08-20 07:46:14 51°10.13 2°40.1 40.254448 4.817999 34.303809 4.308871
2003-08-20 07:46:20 51°10.11 2°40.08 37.49794 4.817366 34.300425 4.34258
2003-08-20 07:46:26 51°10.1 2°40.05 37.49794 4.817366 34.300425 4.34258
2003-08-20 07:46:30 51°10.09 2°40.03 36.473246 4.816733 34.295925 4.34258
2003-08-20 07:46:34 51°10.08 2°40.02 37.415055 4.817682 34.305186 4.34258
2003-08-20 07:46:40 51°10.06 2°39.99 37.261465 4.816627 34.296755 4.443708
2003-08-20 07:46:44 51°10.05 2°39.97 36.728343 4.816416 34.296743 4.443708
2003-08-20 07:46:50 51°10.04 2°39.94 37.440972 4.816627 34.298429 4.443708
2003-08-20 07:46:54 51°10.03 2°39.92 37.440972 4.816627 34.298429 4.443708
2003-08-20 07:47:00 51°10.02 2°39.9 37.143673 4.816733 34.300946 4.477418
2003-08-20 07:47:04 51°10.01 2°39.88 37.324761 4.816099 34.297003 4.443708
2003-08-20 07:47:10 51°9.99 2°39.85 37.294083 4.816205 34.299521 4.511127
2003-08-20 07:47:14 51°9.98 2°39.83 35.434086 4.816416 34.304556 4.443708
2003-08-20 07:47:20 51°9.97 2°39.81 36.891519 4.816311 34.307062 4.477418
2003-08-20 07:47:26 51°9.95 2°39.78 36.891519 4.816311 34.307062 4.477418
2003-08-20 07:47:30 51°9.94 2°39.76 37.186699 4.815255 34.301978 4.409999
2003-08-20 07:47:34 51°9.93 2°39.74 37.158575 4.81515 34.302809 4.477418
2003-08-20 07:47:40 51°9.92 2°39.71 38.27437 4.815572 34.307858 4.511127
2003-08-20 07:47:44 51°9.91 2°39.69 38.434653 4.815783 34.313455 4.544836
2003-08-20 07:47:50 51°9.9 2°39.67 37.383641 4.815572 34.314002 4.544836
2003-08-20 07:47:54 51°9.89 2°39.65 37.383641 4.815572 34.314002 4.544836
2003-08-20 07:48:00 51°9.88 2°39.62 37.643177 4.815361 34.313991 4.477418
2003-08-20 07:48:04 51°9.87 2°39.6 38.292999 4.815467 34.318187 4.578546
2003-08-20 07:48:10 51°9.86 2°39.57 38.600118 4.814728 34.313957 4.544836
2003-08-20 07:48:14 51°9.85 2°39.55 38.529467 4.814939 34.31788 4.511127
2003-08-20 07:48:20 51°9.83 2°39.52 38.428381 4.814834 34.319272 4.612255
2003-08-20 07:48:26 51°9.82 2°39.49 38.428381 4.814834 34.319272 4.612255
2003-08-20 07:48:30 51°9.82 2°39.47 36.661011 4.8142 34.318122 4.578546
2003-08-20 07:48:34 51°9.81 2°39.45 36.770753 4.814095 34.320632 4.578546
2003-08-20 07:48:40 51°9.8 2°39.42 37.223142 4.814412 34.324283 4.612255
2003-08-20 07:48:44 51°9.79 2°39.4 38.23113 4.814623 34.327649 4.645965
2003-08-20 07:48:50 51°9.79 2°39.36 35.826414 4.814834 34.331015 4.612255
2003-08-20 07:48:54 51°9.78 2°39.34 35.826414 4.814834 34.331015 4.612255
2003-08-20 07:49:00 51°9.78 2°39.3 36.224069 4.814834 34.331015 4.612255
2003-08-20 07:49:06 51°9.77 2°39.27 35.981979 4.814623 34.331564 4.544836
2003-08-20 07:49:10 51°9.77 2°39.25 37.492749 4.815256 34.334392 4.645965
2003-08-20 07:49:14 51°9.77 2°39.22 37.259376 4.814939 34.334097 4.578546
2003-08-20 07:49:20 51°9.77 2°39.19 36.967755 4.814834 34.335491 4.578546
2003-08-20 07:49:26 51°9.77 2°39.15 36.967755 4.814834 34.335491 4.578546
2003-08-20 07:49:30 51°9.77 2°39.13 37.146473 4.814728 34.336325 4.612255
2003-08-20 07:49:34 51°9.78 2°39.11 36.36345 4.815362 34.341391 4.544836
2003-08-20 07:49:40 51°9.78 2°39.07 35.802552 4.815256 34.342786 4.578546
2003-08-20 07:49:46 51°9.79 2°39.04 36.962561 4.815045 34.342217 4.578546
2003-08-20 07:49:50 51°9.79 2°39.01 36.676165 4.815151 34.344741 4.511127
2003-08-20 07:49:54 51°9.8 2°38.99 36.676165 4.815151 34.344741 4.511127
2003-08-20 07:50:00 51°9.8 2°38.96 36.476265 4.815573 34.349798 4.511127
2003-08-20 07:50:06 51°9.81 2°38.93 37.331376 4.815362 34.348109 4.511127
2003-08-20 07:50:10 51°9.82 2°38.91 38.59702 4.816312 34.35403 4.443708
2003-08-20 07:50:14 51°9.83 2°38.89 37.622829 4.815995 34.352056 4.409999
2003-08-20 07:50:20 51°9.84 2°38.85 36.17788 4.815678 34.347843 4.376289
2003-08-20 07:50:24 51°9.85 2°38.83 36.17788 4.815678 34.347843 4.376289
2003-08-20 07:50:30 51°9.86 2°38.8 37.971899 4.815573 34.346999 4.34258
2003-08-20 07:50:34 51°9.87 2°38.78 36.886675 4.815678 34.346164 4.376289
2003-08-20 07:50:40 51°9.88 2°38.75 37.420348 4.815889 34.347293 4.376289
2003-08-20 07:50:44 51°9.89 2°38.73 36.677914 4.816206 34.351506 4.34258
2003-08-20 07:50:50 51°9.9 2°38.7 37.890012 4.815995 34.350937 4.409999
2003-08-20 07:50:54 51°9.91 2°38.68 37.890012 4.815995 34.350937 4.409999
2003-08-20 07:51:00 51°9.92 2°38.65 35.265968 4.815784 34.349808 4.376289
2003-08-20 07:51:04 51°9.93 2°38.63 36.998203 4.816206 34.353746 4.34258
2003-08-20 07:51:10 51°9.94 2°38.6 36.056841 4.816734 34.359649 4.443708
2003-08-20 07:51:14 51°9.95 2°38.58 36.039936 4.815995 34.353176 4.376289
2003-08-20 07:51:20 51°9.96 2°38.55 35.313615 4.815045 34.346695 4.34258
2003-08-20 07:51:26 51°9.98 2°38.52 35.313615 4.815045 34.346695 4.34258
2003-08-20 07:51:30 51°9.99 2°38.5 36.521502 4.816312 34.35683 4.275161
2003-08-20 07:51:34 51°9.99 2°38.48 38.463726 4.816945 34.361338 4.207742
2003-08-20 07:51:40 51°10.01 2°38.45 36.87831 4.816101 34.355701 4.140324
2003-08-20 07:51:44 51°10.02 2°38.43 36.380319 4.816734 34.361329 4.140324
2003-08-20 07:51:50 51°10.03 2°38.4 36.579066 4.815784 34.354288 4.072905
2003-08-20 07:51:54 51°10.04 2°38.38 36.579066 4.815784 34.354288 4.072905
2003-08-20 07:52:00 51°10.05 2°38.35 37.13321 4.816945 34.363018 4.072905
2003-08-20 07:52:04 51°10.06 2°38.33 36.711548 4.81705 34.364423 4.140324
2003-08-20 07:52:10 51°10.07 2°38.3 36.578904 4.816101 34.354581 4.174033
2003-08-20 07:52:14 51°10.08 2°38.28 38.050933 4.817367 34.364156 4.241452
2003-08-20 07:52:20 51°10.08 2°38.25 37.299609 4.817684 34.366129 4.140324
2003-08-20 07:52:26 51°10.09 2°38.21 37.299609 4.817684 34.366129 4.140324
2003-08-20 07:52:30 51°10.09 2°38.19 36.197884 4.815889 34.352332 4.140324
2003-08-20 07:52:34 51°10.1 2°38.17 37.437957 4.817261 34.363872 4.207742
2003-08-20 07:52:40 51°10.1 2°38.13 37.639562 4.817789 34.368095 4.106614
2003-08-20 07:52:44 51°10.1 2°38.11 37.204521 4.818422 34.371481 4.072905
2003-08-20 07:52:50 51°10.1 2°38.07 38.890546 4.819583 34.383014 4.005486
2003-08-20 07:52:54 51°10.1 2°38.05 38.890546 4.819583 34.383014 4.005486
2003-08-20 07:53:00 51°10.09 2°38.02 36.802441 4.818845 34.378222 3.870648
2003-08-20 07:53:06 51°10.09 2°37.98 37.611501 4.818739 34.377938 3.836939
2003-08-20 07:53:10 51°10.08 2°37.96 36.218663 4.8199 34.392277 3.735811
2003-08-20 07:53:14 51°10.08 2°37.94 36.932099 4.820217 34.397616 3.668392
2003-08-20 07:53:20 51°10.07 2°37.91 37.326302 4.819584 34.396473 3.600973
2003-08-20 07:53:26 51°10.06 2°37.88 37.326302 4.819584 34.396473 3.600973
2003-08-20 07:53:30 51°10.05 2°37.86 37.963583 4.821589 34.413652 3.634683
2003-08-20 07:53:34 51°10.04 2°37.83 37.310435 4.820533 34.40464 3.600973
2003-08-20 07:53:40 51°10.03 2°37.8 35.954766 4.821483 34.412245 3.634683
2003-08-20 07:53:46 51°10.02 2°37.77 37.302019 4.821694 34.412252 3.634683
2003-08-20 07:53:50 51°10.01 2°37.75 37.574337 4.821378 34.406911 3.668392
2003-08-20 07:53:54 51°10 2°37.73 37.574337 4.821378 34.406911 3.668392
2003-08-20 07:54:00 51°9.99 2°37.7 37.59569 4.821589 34.408601 3.702101
2003-08-20 07:54:06 51°9.98 2°37.68 36.835505 4.821166 34.403537 3.702101
2003-08-20 07:54:10 51°9.97 2°37.66 37.150465 4.821589 34.405234 3.735811
2003-08-20 07:54:14 51°9.96 2°37.64 36.088423 4.821272 34.401577 3.735811
2003-08-20 07:54:20 51°9.95 2°37.61 37.989833 4.822011 34.407492 3.76952
2003-08-20 07:54:24 51°9.94 2°37.59 37.989833 4.822011 34.407492 3.76952
2003-08-20 07:54:30 51°9.93 2°37.56 36.909083 4.821166 34.401293 3.76952
2003-08-20 07:54:34 51°9.92 2°37.54 38.63305 4.821905 34.407208 3.80323
2003-08-20 07:54:40 51°9.91 2°37.51 37.033991 4.8218 34.40468 3.836939
2003-08-20 07:54:44 51°9.9 2°37.49 38.422583 4.822116 34.407214 3.836939
2003-08-20 07:54:50 51°9.88 2°37.46 38.031898 4.822749 34.412845 3.870648
2003-08-20 07:54:54 51°9.87 2°37.45 38.031898 4.822749 34.412845 3.870648
2003-08-20 07:55:00 51°9.86 2°37.42 37.423042 4.8218 34.405802 3.870648
2003-08-20 07:55:04 51°9.85 2°37.4 36.772597 4.821589 34.405795 3.904358
2003-08-20 07:55:10 51°9.83 2°37.37 37.505439 4.822433 34.413116 3.836939
2003-08-20 07:55:14 51°9.83 2°37.36 37.297135 4.822011 34.410858 3.80323
2003-08-20 07:55:20 51°9.81 2°37.33 37.399269 4.822222 34.414232 3.80323
2003-08-20 07:55:26 51°9.8 2°37.3 37.399269 4.822222 34.414232 3.80323
2003-08-20 07:55:30 51°9.79 2°37.28 36.463605 4.821694 34.412252 3.735811
2003-08-20 07:55:34 51°9.78 2°37.26 37.084969 4.82275 34.422948 3.735811
2003-08-20 07:55:40 51°9.76 2°37.24 37.603852 4.822116 34.419562 3.668392
2003-08-20 07:55:44 51°9.75 2°37.22 39.977225 4.822222 34.422653 3.702101
2003-08-20 07:55:50 51°9.74 2°37.19 38.977906 4.822011 34.421524 3.668392
2003-08-20 07:55:54 51°9.73 2°37.17 38.977906 4.822011 34.421524 3.668392
2003-08-20 07:56:00 51°9.72 2°37.15 37.013101 4.8218 34.42208 3.668392
2003-08-20 07:56:06 51°9.7 2°37.12 39.283944 4.821378 34.419822 3.702101
2003-08-20 07:56:10 51°9.69 2°37.1 38.151795 4.821589 34.423198 3.634683
2003-08-20 07:56:14 51°9.68 2°37.08 38.898074 4.821694 34.425166 3.634683
2003-08-20 07:56:20 51°9.67 2°37.05 37.276249 4.820428 34.417268 3.634683
2003-08-20 07:56:26 51°9.65 2°37.03 37.276249 4.820428 34.417268 3.634683
2003-08-20 07:56:30 51°9.64 2°37.01 39.384282 4.821906 34.429666 3.600973
2003-08-20 07:56:34 51°9.63 2°36.99 39.257641 4.821589 34.427692 3.600973
2003-08-20 07:56:40 51°9.62 2°36.96 39.541665 4.821589 34.430501 3.600973
2003-08-20 07:56:46 51°9.61 2°36.94 39.070955 4.821695 34.430223 3.567264
2003-08-20 07:56:50 51°9.6 2°36.92 39.016472 4.821167 34.427681 3.600973
2003-08-20 07:56:54 51°9.59 2°36.9 39.016472 4.821167 34.427681 3.600973
2003-08-20 07:57:00 51°9.57 2°36.87 39.327816 4.821272 34.429089 3.533554
2003-08-20 07:57:06 51°9.56 2°36.84 40.216465 4.820956 34.426552 3.567264
2003-08-20 07:57:10 51°9.55 2°36.82 41.531184 4.821378 34.431058 3.499845
2003-08-20 07:57:14 51°9.54 2°36.81 43.746445 4.820956 34.4288 3.533554
2003-08-20 07:57:20 51°9.53 2°36.78 42.865951 4.822011 34.437256 3.466136
2003-08-20 07:57:26 51°9.51 2°36.75 42.865951 4.822011 34.437256 3.466136
2003-08-20 07:57:30 51°9.5 2°36.73 44.715977 4.820956 34.430486 3.466136
2003-08-20 07:57:34 51°9.49 2°36.71 44.211363 4.822011 34.43838 3.432426
2003-08-20 07:57:40 51°9.48 2°36.69 35.705 4.820745 34.429356 3.432426
2003-08-20 07:57:44 51°9.47 2°36.67 35.135632 4.822011 34.438942 3.466136
2003-08-20 07:57:50 51°9.46 2°36.64 36.18697 4.82085 34.430202 3.398717
2003-08-20 07:57:54 51°9.45 2°36.62 36.18697 4.82085 34.430202 3.398717
2003-08-20 07:58:00 51°9.43 2°36.59 37.062836 4.82085 34.42964 3.398717
2003-08-20 07:58:04 51°9.42 2°36.58 36.452371 4.82085 34.430202 3.365007
2003-08-20 07:58:10 51°9.41 2°36.55 35.927249 4.821484 34.434152 3.365007
2003-08-20 07:58:14 51°9.4 2°36.53 35.838392 4.82085 34.429078 3.365007
2003-08-20 07:58:20 51°9.39 2°36.5 36.000367 4.82085 34.42964 3.331298
2003-08-20 07:58:26 51°9.37 2°36.47 36.000367 4.82085 34.42964 3.331298
2003-08-20 07:58:30 51°9.37 2°36.45 36.270915 4.820534 34.428227 3.331298
2003-08-20 07:58:34 51°9.36 2°36.43 36.512418 4.821378 34.434993 3.331298
2003-08-20 07:58:40 51°9.35 2°36.4 36.138902 4.82085 34.430764 3.331298
2003-08-20 07:58:44 51°9.34 2°36.38 36.590866 4.820745 34.429918 3.297589
2003-08-20 07:58:50 51°9.33 2°36.35 35.874575 4.82085 34.42964 3.297589
2003-08-20 07:58:54 51°9.33 2°36.32 35.874575 4.82085 34.42964 3.297589
2003-08-20 07:59:00 51°9.32 2°36.29 35.682544 4.820639 34.427949 3.297589
2003-08-20 07:59:06 51°9.32 2°36.26 35.439381 4.820745 34.425985 3.263879
2003-08-20 07:59:10 51°9.31 2°36.23 37.43831 4.8218 34.433316 3.297589
2003-08-20 07:59:14 51°9.31 2°36.21 36.427884 4.820956 34.427114 3.297589
2003-08-20 07:59:20 51°9.3 2°36.18 35.811064 4.820745 34.424299 3.297589
2003-08-20 07:59:26 51°9.29 2°36.14 35.811064 4.820745 34.424299 3.297589
2003-08-20 07:59:30 51°9.29 2°36.12 36.455845 4.821061 34.427959 3.297589
2003-08-20 07:59:34 51°9.29 2°36.1 35.920156 4.821167 34.428805 3.297589
2003-08-20 07:59:40 51°9.28 2°36.06 36.096806 4.82085 34.42683 3.297589
2003-08-20 07:59:44 51°9.28 2°36.04 35.718372 4.821272 34.42965 3.331298
2003-08-20 07:59:50 51°9.28 2°36.01 35.596037 4.821273 34.431336 3.297589
2003-08-20 07:59:54 51°9.28 2°36 35.596037 4.821273 34.431336 3.297589
2003-08-20 08:00:00 51°9.28 2°35.97 37.871927 4.820534 34.428227 3.331298
2003-08-20 08:00:06 51°9.28 2°35.95 37.071406 4.82085 34.431326 3.331298
2003-08-20 08:00:10 51°9.28 2°35.93 37.433852 4.821167 34.433301 3.365007
2003-08-20 08:00:14 51°9.28 2°35.92 36.445876 4.821167 34.432177 3.331298
2003-08-20 08:00:20 51°9.28 2°35.9 37.277663 4.821589 34.43556 3.398717
2003-08-20 08:00:26 51°9.29 2°35.88 37.277663 4.821589 34.43556 3.398717
2003-08-20 08:00:30 51°9.29 2°35.87 38.466038 4.821695 34.436405 3.331298
2003-08-20 08:00:34 51°9.29 2°35.86 37.322416 4.821484 34.435276 3.365007
2003-08-20 08:00:40 51°9.3 2°35.85 35.789456 4.821273 34.434709 3.398717
2003-08-20 08:00:46 51°9.3 2°35.84 37.742698 4.821589 34.438371 3.331298
2003-08-20 08:00:50 51°9.31 2°35.83 35.245431 4.821378 34.437241 3.297589
2003-08-20 08:00:54 51°9.31 2°35.82 35.245431 4.821378 34.437241 3.297589
2003-08-20 08:01:00 51°9.31 2°35.81 36.95585 4.822328 34.444853 3.263879
2003-08-20 08:01:04 51°9.32 2°35.8 35.65572 4.821484 34.438649 3.263879
2003-08-20 08:01:10 51°9.32 2°35.79 35.244013 4.821167 34.436112 3.23017
2003-08-20 08:01:14 51°9.32 2°35.78 34.403051 4.8218 34.440624 3.129042
2003-08-20 08:01:20 51°9.33 2°35.78 35.451582 4.821589 34.437246 3.162751
2003-08-20 08:01:24 51°9.33 2°35.77 35.451582 4.821589 34.437246 3.162751
2003-08-20 08:01:30 51°9.33 2°35.77 34.865798 4.821273 34.435833 3.095332
2003-08-20 08:01:34 51°9.33 2°35.76 35.541006 4.821167 34.434426 3.027913
2003-08-20 08:01:40 51°9.34 2°35.76 35.033549 4.820956 34.433296 3.027913
2003-08-20 08:01:46 51°9.34 2°35.76 34.87292 4.821062 34.43358 3.027913
2003-08-20 08:01:50 51°9.34 2°35.76 35.679987 4.820534 34.429913 3.027913
2003-08-20 08:01:54 51°9.34 2°35.76 35.679987 4.820534 34.429913 3.027913
2003-08-20 08:02:00 51°9.34 2°35.75 35.287785 4.821484 34.436963 2.994204
2003-08-20 08:02:06 51°9.35 2°35.75 35.135599 4.821378 34.435555 3.129042
2003-08-20 08:02:10 51°9.35 2°35.75 35.41958 4.820534 34.431038 3.095332
2003-08-20 08:02:14 51°9.35 2°35.75 36.188046 4.821484 34.437525 3.162751
2003-08-20 08:02:20 51°9.35 2°35.75 36.099382 4.821273 34.436396 3.162751
2003-08-20 08:02:26 51°9.35 2°35.75 36.099382 4.821273 34.436396 3.162751
2003-08-20 08:02:30 51°9.35 2°35.75 34.965816 4.820956 34.434421 3.129042
2003-08-20 08:02:34 51°9.36 2°35.75 36.150539 4.821167 34.436674 3.162751
2003-08-20 08:02:40 51°9.36 2°35.75 35.566688 4.820956 34.43667 3.19646
2003-08-20 08:02:46 51°9.36 2°35.75 35.808314 4.820851 34.435261 3.129042
2003-08-20 08:02:50 51°9.36 2°35.75 35.23333 4.820428 34.432441 3.23017
2003-08-20 08:02:54 51°9.36 2°35.74 35.23333 4.820428 34.432441 3.23017
2003-08-20 08:03:00 51°9.36 2°35.74 35.016092 4.821062 34.438078 3.263879
2003-08-20 08:03:06 51°9.37 2°35.74 35.474991 4.820323 34.431033 3.23017
2003-08-20 08:03:10 51°9.37 2°35.74 36.493792 4.821273 34.440332 3.263879
2003-08-20 08:03:14 51°9.37 2°35.74 35.669494 4.821062 34.438078 3.263879
2003-08-20 08:03:20 51°9.37 2°35.74 35.750974 4.820428 34.435252 3.331298
2003-08-20 08:03:24 51°9.37 2°35.74 35.750974 4.820428 34.435252 3.331298
2003-08-20 08:03:30 51°9.37 2°35.74 35.551056 4.819901 34.432147 3.331298
2003-08-20 08:03:34 51°9.37 2°35.74 35.016919 4.820217 34.434685 3.331298
2003-08-20 08:03:40 51°9.38 2°35.74 35.393028 4.819901 34.432709 3.365007
2003-08-20 08:03:44 51°9.38 2°35.74 35.798362 4.820217 34.435809 3.365007
2003-08-20 08:03:50 51°9.38 2°35.74 35.457303 4.820323 34.436093 3.365007
2003-08-20 08:03:54 51°9.38 2°35.74 35.457303 4.820323 34.436093 3.365007
2003-08-20 08:04:00 51°9.38 2°35.74 35.790013 4.81969 34.433267 3.398717
2003-08-20 08:04:06 51°9.38 2°35.74 35.825989 4.819479 34.431013 3.365007
2003-08-20 08:04:10 51°9.38 2°35.74 34.890773 4.820006 34.434118 3.432426
2003-08-20 08:04:14 51°9.39 2°35.74 35.006535 4.819795 34.431863 3.398717
2003-08-20 08:04:20 51°9.39 2°35.74 35.222481 4.81969 34.43158 3.432426
2003-08-20 08:04:24 51°9.39 2°35.74 35.222481 4.81969 34.43158 3.432426
2003-08-20 08:04:30 51°9.39 2°35.74 35.081865 4.82064 34.437506 3.466136
2003-08-20 08:04:34 51°9.39 2°35.74 35.786804 4.820112 34.433839 3.432426
2003-08-20 08:04:40 51°9.39 2°35.74 35.99795 4.819795 34.430177 3.398717
2003-08-20 08:04:46 51°9.39 2°35.74 35.482519 4.820323 34.434968 3.466136
2003-08-20 08:04:50 51°9.39 2°35.74 35.490473 4.820428 34.436376 3.466136
2003-08-20 08:04:54 51°9.4 2°35.74 35.490473 4.820428 34.436376 3.466136
2003-08-20 08:05:00 51°9.4 2°35.74 35.35129 4.819479 34.427077 3.432426
2003-08-20 08:05:06 51°9.4 2°35.74 35.243947 4.820217 34.432998 3.499845
2003-08-20 08:05:10 51°9.4 2°35.74 36.103883 4.820323 34.432719 3.466136
2003-08-20 08:05:14 51°9.4 2°35.74 33.188999 4.820217 34.432436 3.432426
2003-08-20 08:05:20 51°9.4 2°35.74 36.443408 4.820006 34.430182 3.432426
2003-08-20 08:05:26 51°9.41 2°35.74 36.443408 4.820006 34.430182 3.432426
2003-08-20 08:05:30 51°9.41 2°35.74 34.37882 4.820428 34.433003 3.466136
2003-08-20 08:05:34 51°9.41 2°35.74 34.347779 4.821062 34.436391 3.499845
2003-08-20 08:05:40 51°9.41 2°35.75 35.011694 4.820428 34.430192 3.466136
2003-08-20 08:05:46 51°9.41 2°35.75 33.6689 4.820534 34.430475 3.432426
2003-08-20 08:05:50 51°9.42 2°35.75 34.889548 4.820745 34.431605 3.466136
2003-08-20 08:05:54 51°9.42 2°35.75 34.889548 4.820745 34.431605 3.466136
2003-08-20 08:06:00 51°9.42 2°35.75 34.761804 4.820534 34.430475 3.398717
2003-08-20 08:06:06 51°9.42 2°35.75 34.47227 4.821061 34.431893 3.432426
2003-08-20 08:06:10 51°9.43 2°35.75 36.275406 4.82085 34.429078 3.398717
2003-08-20 08:06:14 51°9.43 2°35.75 35.364821 4.820956 34.430486 3.365007
2003-08-20 08:06:20 51°9.43 2°35.76 35.383978 4.821484 34.435276 3.398717
2003-08-20 08:06:24 51°9.43 2°35.76 35.383978 4.821484 34.435276 3.398717
2003-08-20 08:06:30 51°9.44 2°35.76 36.356591 4.820639 34.427387 3.398717
2003-08-20 08:06:34 51°9.44 2°35.76 35.880756 4.820534 34.425979 3.398717
2003-08-20 08:06:40 51°9.44 2°35.77 36.2811 4.821167 34.430491 3.331298
2003-08-20 08:06:44 51°9.44 2°35.77 34.963864 4.821061 34.427397 3.365007
2003-08-20 08:06:50 51°9.45 2°35.77 35.531612 4.821695 34.431909 3.331298
2003-08-20 08:06:54 51°9.45 2°35.77 35.531612 4.821695 34.431909 3.331298
2003-08-20 08:07:00 51°9.45 2°35.77 35.099307 4.821167 34.428805 3.365007
2003-08-20 08:07:06 51°9.45 2°35.78 35.344737 4.821484 34.42797 3.365007
2003-08-20 08:07:10 51°9.46 2°35.78 35.721977 4.821378 34.427125 3.331298
2003-08-20 08:07:14 51°9.46 2°35.78 36.283248 4.822117 34.431919 3.297589
2003-08-20 08:07:20 51°9.46 2°35.78 35.933329 4.822222 34.430517 3.23017
2003-08-20 08:07:26 51°9.46 2°35.79 35.933329 4.822222 34.430517 3.23017
2003-08-20 08:07:30 51°9.47 2°35.79 34.991983 4.822328 34.433048 3.263879
2003-08-20 08:07:34 51°9.47 2°35.79 34.58905 4.822011 34.428826 3.19646
2003-08-20 08:07:40 51°9.47 2°35.79 34.968926 4.820428 34.415584 3.19646
2003-08-20 08:07:46 51°9.47 2°35.8 36.176219 4.819584 34.409382 3.19646
2003-08-20 08:07:50 51°9.48 2°35.8 35.903875 4.819689 34.410789 3.162751
2003-08-20 08:07:54 51°9.48 2°35.8 35.903875 4.819689 34.410789 3.162751
2003-08-20 08:08:00 51°9.48 2°35.81 34.605006 4.82085 34.418965 3.162751
2003-08-20 08:08:04 51°9.48 2°35.81 34.553535 4.820639 34.416713 3.23017
2003-08-20 08:08:10 51°9.48 2°35.81 34.155757 4.820006 34.412202 3.162751
2003-08-20 08:08:14 51°9.49 2°35.81 34.753743 4.819795 34.409388 3.095332
2003-08-20 08:08:20 51°9.49 2°35.82 34.158331 4.821272 34.421785 3.162751
2003-08-20 08:08:26 51°9.49 2°35.82 34.158331 4.821272 34.421785 3.162751
2003-08-20 08:08:30 51°9.49 2°35.82 34.42361 4.820534 34.413621 3.162751
2003-08-20 08:08:34 51°9.49 2°35.83 25.577011 4.820639 34.415028 3.129042
2003-08-20 08:08:40 51°9.5 2°35.83 21.454414 4.819795 34.408265 3.129042
2003-08-20 08:08:46 51°9.5 2°35.83 21.347261 4.822011 34.425456 3.129042
2003-08-20 08:08:50 51°9.5 2°35.84 21.607266 4.820006 34.408833 3.19646
2003-08-20 08:08:54 51°9.5 2°35.84 21.607266 4.820006 34.408833 3.19646
2003-08-20 08:09:00 51°9.5 2°35.84 21.540265 4.820322 34.391731 3.19646
2003-08-20 08:09:04 51°9.5 2°35.84 21.348095 4.822116 34.387591 3.398717
2003-08-20 08:09:10 51°9.51 2°35.85 21.480731 4.819899 34.364261 3.668392
2003-08-20 08:09:14 51°9.51 2°35.85 21.353454 4.784968 34.094465 3.095332
2003-08-20 08:09:20 51°9.51 2°35.85 21.579057 4.821166 34.395685 2.893076
2003-08-20 08:09:26 51°9.51 2°35.86 21.579057 4.821166 34.395685 2.893076
2003-08-20 08:09:30 51°9.51 2°35.86 21.509098 4.822433 34.415361 2.791947
2003-08-20 08:09:34 51°9.51 2°35.86 21.439031 4.820533 34.405201 2.859366
2003-08-20 08:09:40 51°9.52 2°35.87 21.47122 4.82275 34.425195 2.791947
2003-08-20 08:09:46 51°9.52 2°35.87 21.636057 4.8218 34.415342 2.690819
2003-08-20 08:09:50 51°9.52 2°35.87 21.345197 4.820006 34.400414 2.690819
2003-08-20 08:09:54 51°9.52 2°35.88 21.345197 4.820006 34.400414 2.690819
2003-08-20 08:10:00 51°9.52 2°35.88 21.408216 4.822961 34.425762 2.65711
2003-08-20 08:10:04 51°9.52 2°35.88 21.407304 4.821694 34.417865 2.724529
2003-08-20 08:10:10 51°9.52 2°35.89 21.210835 4.821589 34.419266 2.690819
2003-08-20 08:10:14 51°9.52 2°35.89 21.630917 4.821589 34.419266 2.724529
2003-08-20 08:10:20 51°9.52 2°35.89 21.369054 4.821694 34.421235 2.724529
2003-08-20 08:10:26 51°9.53 2°35.9 21.369054 4.821694 34.421235 2.724529
2003-08-20 08:10:30 51°9.53 2°35.9 21.304768 4.820111 34.407994 2.724529
2003-08-20 08:10:34 51°9.53 2°35.9 21.435502 4.820534 34.412498 2.724529
2003-08-20 08:10:40 51°9.53 2°35.9 21.237958 4.820956 34.416441 2.758238
2003-08-20 08:10:46 51°9.53 2°35.91 21.400124 4.820745 34.415312 2.6234
2003-08-20 08:10:50 51°9.53 2°35.91 21.241338 4.820217 34.411085 2.690819
2003-08-20 08:10:54 51°9.53 2°35.91 21.241338 4.820217 34.411085 2.690819
2003-08-20 08:11:00 51°9.53 2°35.92 21.179085 4.820745 34.417558 2.65711
2003-08-20 08:11:06 51°9.53 2°35.92 21.440578 4.8199 34.411357 2.6234
2003-08-20 08:11:10 51°9.53 2°35.92 21.242889 4.820956 34.420372 2.589691
2003-08-20 08:11:14 51°9.53 2°35.92 21.692539 4.820323 34.4153 2.6234
2003-08-20 08:11:20 51°9.53 2°35.93 21.494797 4.820428 34.418392 2.6234
2003-08-20 08:11:26 51°9.53 2°35.93 21.494797 4.820428 34.418392 2.6234
2003-08-20 08:11:30 51°9.54 2°35.93 21.399449 4.820639 34.418398 2.589691
2003-08-20 08:11:34 51°9.54 2°35.94 21.275206 4.820639 34.416151 2.589691
2003-08-20 08:11:40 51°9.54 2°35.94 21.62977 4.820534 34.415306 2.589691
2003-08-20 08:11:46 51°9.54 2°35.94 21.368141 4.820745 34.417558 2.6234
2003-08-20 08:11:50 51°9.54 2°35.95 21.436057 4.8199 34.41248 2.589691
2003-08-20 08:11:54 51°9.54 2°35.95 21.436057 4.8199 34.41248 2.589691
2003-08-20 08:12:00 51°9.54 2°35.95 21.534484 4.820639 34.419521 2.589691
2003-08-20 08:12:04 51°9.54 2°35.96 21.240265 4.820639 34.417836 2.589691
2003-08-20 08:12:10 51°9.54 2°35.96 21.332094 4.820428 34.416707 2.555982
2003-08-20 08:12:14 51°9.54 2°35.96 21.265509 4.821061 34.421217 2.589691
2003-08-20 08:12:20 51°9.54 2°35.97 21.231159 4.820217 34.415578 2.589691
2003-08-20 08:12:26 51°9.54 2°35.97 21.231159 4.820217 34.415578 2.589691
2003-08-20 08:12:30 51°9.54 2°35.97 21.199816 4.82085 34.418965 2.589691
2003-08-20 08:12:34 51°9.54 2°35.97 21.295313 4.821061 34.420094 2.6234
2003-08-20 08:12:40 51°9.54 2°35.98 21.354526 4.820639 34.417836 2.6234
2003-08-20 08:12:46 51°9.54 2°35.98 21.414127 4.820428 34.41783 2.65711
2003-08-20 08:12:50 51°9.54 2°35.98 21.311997 4.819584 34.414436 2.65711
2003-08-20 08:12:54 51°9.54 2°35.99 21.311997 4.819584 34.414436 2.65711
2003-08-20 08:13:00 51°9.54 2°35.99 21.276518 4.820323 34.420355 2.65711
2003-08-20 08:13:04 51°9.54 2°35.99 21.275604 4.8199 34.416973 2.589691
2003-08-20 08:13:10 51°9.54 2°35.99 21.439031 4.820639 34.423453 2.65711
2003-08-20 08:13:14 51°9.54 2°36 21.376634 4.820006 34.422313 2.589691
2003-08-20 08:13:20 51°9.54 2°36 21.447674 4.819478 34.421456 2.555982
2003-08-20 08:13:26 51°9.54 2°36 21.447674 4.819478 34.421456 2.555982
2003-08-20 08:13:30 51°9.54 2°36.01 21.45148 4.818951 34.422848 2.555982
2003-08-20 08:13:34 51°9.54 2°36.01 21.353176 4.818634 34.421435 2.522272
2003-08-20 08:13:40 51°9.54 2°36.01 21.415753 4.81874 34.423967 2.522272
2003-08-20 08:13:44 51°9.54 2°36.01 21.250761 4.818634 34.424808 2.522272
2003-08-20 08:13:50 51°9.54 2°36.02 21.543235 4.818951 34.424534 2.555982
2003-08-20 08:13:54 51°9.54 2°36.02 21.543235 4.818951 34.424534 2.555982
2003-08-20 08:14:00 51°9.53 2°36.02 21.249528 4.819267 34.423699 2.555982
2003-08-20 08:14:06 51°9.53 2°36.03 21.475976 4.818529 34.417217 2.522272
2003-08-20 08:14:10 51°9.53 2°36.03 21.27918 4.819162 34.421167 2.589691
2003-08-20 08:14:14 51°9.53 2°36.03 21.113233 4.819162 34.421167 2.589691
2003-08-20 08:14:20 51°9.53 2°36.03 21.140951 4.818951 34.421162 2.589691
2003-08-20 08:14:26 51°9.53 2°36.04 21.140951 4.818951 34.421162 2.589691
2003-08-20 08:14:30 51°9.53 2°36.04 21.039983 4.818529 34.418341 2.6234
2003-08-20 08:14:34 51°9.53 2°36.04 21.364331 4.81874 34.421718 2.6234
2003-08-20 08:14:40 51°9.53 2°36.04 21.2028 4.818423 34.419181 2.65711
2003-08-20 08:14:46 51°9.53 2°36.05 21.431933 4.818845 34.423126 2.724529
2003-08-20 08:14:50 51°9.53 2°36.05 21.399568 4.818423 34.421991 2.724529
2003-08-20 08:14:54 51°9.53 2°36.05 21.399568 4.818423 34.421991 2.724529
2003-08-20 08:15:00 51°9.53 2°36.05 21.418886 4.818001 34.419732 2.825657
2003-08-20 08:15:06 51°9.52 2°36.06 21.465473 4.817896 34.422259 2.690819
2003-08-20 08:15:10 51°9.52 2°36.06 21.30449 4.818001 34.42423 2.825657
2003-08-20 08:15:14 51°9.52 2°36.06 21.499551 4.817579 34.423657 2.859366
2003-08-20 08:15:20 51°9.52 2°36.06 21.303417 4.817474 34.421124 2.859366
2003-08-20 08:15:26 51°9.52 2°36.07 21.303417 4.817474 34.421124 2.859366
2003-08-20 08:15:30 51°9.52 2°36.07 21.530841 4.81779 34.423662 2.893076
2003-08-20 08:15:34 51°9.52 2°36.07 21.106421 4.816946 34.416894 2.859366
2003-08-20 08:15:40 51°9.52 2°36.07 21.140115 4.818212 34.425922 2.960494
2003-08-20 08:15:46 51°9.52 2°36.07 21.367863 4.817474 34.42 2.960494
2003-08-20 08:15:50 51°9.52 2°36.08 21.467019 4.817579 34.419721 2.994204
2003-08-20 08:15:54 51°9.52 2°36.08 21.467019 4.817579 34.419721 2.994204
2003-08-20 08:16:00 51°9.51 2°36.08 21.400957 4.817579 34.419159 3.061623
2003-08-20 08:16:04 51°9.51 2°36.08 21.593934 4.817262 34.417746 3.061623
2003-08-20 08:16:10 51°9.51 2°36.08 21.36318 4.817263 34.419432 3.061623
2003-08-20 08:16:14 51°9.51 2°36.09 21.162807 4.817685 34.42113 3.095332
2003-08-20 08:16:20 51°9.51 2°36.09 21.06211 4.817896 34.423384 3.061623
2003-08-20 08:16:26 51°9.51 2°36.09 21.06211 4.817896 34.423384 3.061623
2003-08-20 08:16:30 51°9.51 2°36.09 21.420076 4.817579 34.420846 2.994204
2003-08-20 08:16:34 51°9.5 2°36.09 21.356154 4.817051 34.418303 2.960494
2003-08-20 08:16:40 51°9.5 2°36.1 21.292174 4.817579 34.42197 3.027913
2003-08-20 08:16:46 51°9.5 2°36.1 21.48929 4.818212 34.429859 2.926785
2003-08-20 08:16:50 51°9.5 2°36.1 21.457902 4.817579 34.427594 3.027913
2003-08-20 08:16:54 51°9.5 2°36.1 21.457902 4.817579 34.427594 3.027913
2003-08-20 08:17:00 51°9.5 2°36.1 21.264435 4.817052 34.424488 2.926785
2003-08-20 08:17:06 51°9.5 2°36.1 21.397148 4.816207 34.417157 2.926785
2003-08-20 08:17:10 51°9.49 2°36.1 21.170529 4.815785 34.417146 2.893076
2003-08-20 08:17:14 51°9.49 2°36.11 21.301471 4.816102 34.416873 2.926785
2003-08-20 08:17:20 51°9.49 2°36.11 21.431696 4.817157 34.424772 2.960494
2003-08-20 08:17:26 51°9.49 2°36.11 21.431696 4.817157 34.424772 2.960494
2003-08-20 08:17:30 51°9.49 2°36.11 21.335191 4.817157 34.42421 2.960494
2003-08-20 08:17:34 51°9.49 2°36.11 21.302265 4.816946 34.420268 2.994204
2003-08-20 08:17:40 51°9.48 2°36.11 21.432171 4.817685 34.426191 2.994204
2003-08-20 08:17:44 51°9.48 2°36.11 21.335032 4.817685 34.424503 2.960494
2003-08-20 08:17:50 51°9.48 2°36.11 21.402345 4.817474 34.422249 3.061623
2003-08-20 08:17:54 51°9.48 2°36.11 21.402345 4.817474 34.422249 3.061623
2003-08-20 08:18:00 51°9.48 2°36.11 21.145092 4.818529 34.43071 2.960494
2003-08-20 08:18:06 51°9.47 2°36.11 21.215728 4.817685 34.423941 2.960494
2003-08-20 08:18:10 51°9.47 2°36.11 21.381158 4.817685 34.423379 2.926785
2003-08-20 08:18:14 51°9.47 2°36.11 21.350477 4.818318 34.42733 2.960494
2003-08-20 08:18:20 51°9.47 2°36.11 21.354764 4.81779 34.4231 2.994204
2003-08-20 08:18:26 51°9.47 2°36.11 21.354764 4.81779 34.4231 2.994204
2003-08-20 08:18:30 51°9.47 2°36.11 21.293644 4.818529 34.426773 2.926785
2003-08-20 08:18:34 51°9.46 2°36.11 21.458338 4.817896 34.419448 2.960494
2003-08-20 08:18:40 51°9.46 2°36.11 21.265509 4.818634 34.423683 2.994204
2003-08-20 08:18:46 51°9.46 2°36.11 21.432211 4.818001 34.416922 2.960494
2003-08-20 08:18:50 51°9.46 2°36.11 21.464918 4.817684 34.412699 2.960494
2003-08-20 08:18:54 51°9.46 2°36.11 21.464918 4.817684 34.412699 2.960494
2003-08-20 08:19:00 51°9.46 2°36.11 21.496857 4.818951 34.418914 2.926785
2003-08-20 08:19:04 51°9.45 2°36.11 21.493569 4.820639 34.429073 2.893076
2003-08-20 08:19:10 51°9.45 2°36.11 21.325343 4.819901 34.420906 2.859366
2003-08-20 08:19:14 51°9.45 2°36.11 21.254657 4.819584 34.418369 2.893076
2003-08-20 08:19:20 51°9.45 2°36.1 21.151581 4.82085 34.424021 2.859366
2003-08-20 08:19:26 51°9.45 2°36.1 21.151581 4.82085 34.424021 2.859366
2003-08-20 08:19:30 51°9.45 2°36.1 21.214256 4.820745 34.422613 2.791947
2003-08-20 08:19:34 51°9.44 2°36.1 21.438873 4.82085 34.422897 2.758238
2003-08-20 08:19:40 51°9.44 2°36.1 21.308303 4.820428 34.420639 2.65711
2003-08-20 08:19:46 51°9.44 2°36.1 21.177016 4.820745 34.426546 2.690819
2003-08-20 08:19:50 51°9.44 2°36.1 21.338288 4.819795 34.423431 2.65711
2003-08-20 08:19:54 51°9.44 2°36.1 21.338288 4.819795 34.423431 2.65711
2003-08-20 08:20:00 51°9.44 2°36.09 21.240026 4.819584 34.42455 2.690819
2003-08-20 08:20:04 51°9.43 2°36.09 21.435225 4.819268 34.424823 2.690819
2003-08-20 08:20:10 51°9.43 2°36.09 21.240265 4.819162 34.426788 2.6234
2003-08-20 08:20:14 51°9.43 2°36.09 21.14346 4.818845 34.424813 2.65711
2003-08-20 08:20:20 51°9.43 2°36.09 21.112397 4.819057 34.427629 2.690819
2003-08-20 08:20:26 51°9.43 2°36.08 21.112397 4.819057 34.427629 2.690819
2003-08-20 08:20:30 51°9.43 2°36.08 21.18012 4.818529 34.425086 2.65711
2003-08-20 08:20:34 51°9.43 2°36.08 21.312474 4.818845 34.428186 2.724529
2003-08-20 08:20:40 51°9.42 2°36.08 21.153851 4.818423 34.425927 2.690819
2003-08-20 08:20:46 51°9.42 2°36.08 21.253186 4.818845 34.428186 2.758238
2003-08-20 08:20:50 51°9.42 2°36.07 21.026106 4.818529 34.426773 2.791947
2003-08-20 08:20:54 51°9.42 2°36.07 21.026106 4.818529 34.426773 2.791947
2003-08-20 08:21:00 51°9.42 2°36.07 21.15815 4.81874 34.426778 2.758238
2003-08-20 08:21:06 51°9.42 2°36.07 21.250522 4.818634 34.425932 2.791947
2003-08-20 08:21:10 51°9.42 2°36.06 21.019445 4.819057 34.427067 2.893076
2003-08-20 08:21:14 51°9.42 2°36.06 21.409168 4.819373 34.426793 2.893076
2003-08-20 08:21:20 51°9.42 2°36.06 21.409367 4.819268 34.425385 2.926785
2003-08-20 08:21:26 51°9.42 2°36.06 21.409367 4.819268 34.425385 2.926785
2003-08-20 08:21:30 51°9.41 2°36.05 21.282399 4.819901 34.427649 2.960494
2003-08-20 08:21:34 51°9.41 2°36.05 21.318789 4.819267 34.423699 2.926785
2003-08-20 08:21:40 51°9.41 2°36.05 21.223603 4.81969 34.42652 2.994204
2003-08-20 08:21:44 51°9.41 2°36.05 21.195559 4.819795 34.429614 2.960494
2003-08-20 08:21:50 51°9.41 2°36.04 21.459131 4.819795 34.430177 2.859366
2003-08-20 08:21:54 51°9.41 2°36.04 21.459131 4.819795 34.430177 2.859366
2003-08-20 08:22:00 51°9.41 2°36.04 21.27004 4.819056 34.424256 2.893076
2003-08-20 08:22:06 51°9.41 2°36.03 21.270993 4.819479 34.425953 2.893076
2003-08-20 08:22:10 51°9.41 2°36.03 21.14334 4.820323 34.432719 2.926785
2003-08-20 08:22:14 51°9.41 2°36.03 21.372983 4.820006 34.426247 2.994204
2003-08-20 08:22:20 51°9.41 2°36.03 21.276398 4.820639 34.429073 3.061623
2003-08-20 08:22:26 51°9.41 2°36.02 21.276398 4.820639 34.429073 3.061623
2003-08-20 08:22:30 51°9.41 2°36.02 21.40659 4.821061 34.429645 3.061623
2003-08-20 08:22:34 51°9.41 2°36.02 21.306476 4.821061 34.426274 3.129042
2003-08-20 08:22:40 51°9.41 2°36.02 21.336461 4.821589 34.42713 3.162751
2003-08-20 08:22:46 51°9.41 2°36.01 21.171723 4.821906 34.428543 3.129042
2003-08-20 08:22:50 51°9.41 2°36.01 21.365005 4.8218 34.426012 3.095332
2003-08-20 08:22:54 51°9.41 2°36.01 21.365005 4.8218 34.426012 3.095332
2003-08-20 08:23:00 51°9.41 2°36 21.233624 4.822117 34.426301 3.129042
2003-08-20 08:23:04 51°9.41 2°36 21.330982 4.8218 34.42545 3.162751
2003-08-20 08:23:10 51°9.41 2°36 21.2343 4.8218 34.426574 3.19646
2003-08-20 08:23:14 51°9.41 2°36 21.396752 4.822117 34.430795 3.19646
2003-08-20 08:23:20 51°9.41 2°35.99 21.496857 4.821695 34.428537 3.23017
2003-08-20 08:23:26 51°9.41 2°35.99 21.496857 4.821695 34.428537 3.23017
2003-08-20 08:23:30 51°9.41 2°35.99 21.234062 4.821484 34.429094 3.297589
2003-08-20 08:23:34 51°9.41 2°35.98 21.656576 4.821589 34.430501 3.263879
2003-08-20 08:23:40 51°9.41 2°35.97 21.497927 4.8218 34.430507 3.263879
2003-08-20 08:23:46 51°9.42 2°35.96 21.181752 4.821378 34.427125 3.23017
2003-08-20 08:23:50 51°9.42 2°35.96 21.378539 4.821589 34.428816 3.263879
2003-08-20 08:23:54 51°9.42 2°35.95 21.378539 4.821589 34.428816 3.263879
2003-08-20 08:24:00 51°9.43 2°35.93 21.40782 4.822011 34.431636 3.19646
2003-08-20 08:24:04 51°9.44 2°35.92 21.593222 4.821378 34.426563 3.095332
2003-08-20 08:24:10 51°9.45 2°35.91 21.363577 4.821906 34.430228 3.095332
2003-08-20 08:24:14 51°9.45 2°35.9 21.333722 4.821589 34.424883 3.162751
2003-08-20 08:24:20 51°9.46 2°35.88 21.248296 4.822117 34.426301 3.162751
2003-08-20 08:24:26 51°9.47 2°35.86 21.248296 4.822117 34.426301 3.162751
2003-08-20 08:24:30 51°9.48 2°35.85 21.358456 4.821694 34.421235 3.162751
2003-08-20 08:24:34 51°9.49 2°35.83 21.341306 4.822011 34.425456 3.061623
2003-08-20 08:24:40 51°9.51 2°35.81 21.101999 4.821694 34.424043 2.960494
2003-08-20 08:24:46 51°9.52 2°35.79 21.249051 4.8218 34.427697 2.791947
2003-08-20 08:24:50 51°9.53 2°35.78 21.365918 4.822539 34.436987 2.65711
2003-08-20 08:24:54 51°9.54 2°35.77 21.365918 4.822539 34.436987 2.65711
2003-08-20 08:25:00 51°9.56 2°35.74 21.379491 4.820956 34.43161 2.522272
2003-08-20 08:25:06 51°9.58 2°35.72 21.324866 4.819795 34.432988 2.454853
2003-08-20 08:25:10 51°9.59 2°35.71 21.204311 4.818001 34.430979 2.421144
2003-08-20 08:25:14 51°9.6 2°35.7 21.343529 4.81779 34.436601 2.454853
2003-08-20 08:25:20 51°9.62 2°35.68 21.182747 4.816946 34.428142 2.454853
2003-08-20 08:25:26 51°9.64 2°35.66 21.182747 4.816946 34.428142 2.454853
2003-08-20 08:25:30 51°9.65 2°35.65 21.243565 4.817685 34.42844 2.488563
2003-08-20 08:25:34 51°9.66 2°35.64 21.399529 4.818107 34.422827 2.488563
2003-08-20 08:25:40 51°9.68 2°35.62 21.084468 4.819056 34.42257 2.522272
2003-08-20 08:25:46 51°9.7 2°35.6 21.121996 4.820112 34.421473 2.555982
2003-08-20 08:25:50 51°9.71 2°35.59 21.364926 4.820428 34.417268 2.555982
2003-08-20 08:25:54 51°9.73 2°35.57 21.364926 4.820428 34.417268 2.555982
2003-08-20 08:26:00 51°9.75 2°35.56 21.249886 4.82085 34.416719 2.555982
2003-08-20 08:26:06 51°9.77 2°35.54 21.138881 4.821061 34.417848 2.454853
2003-08-20 08:26:10 51°9.78 2°35.52 21.057525 4.8218 34.428821 2.185178
2003-08-20 08:26:14 51°9.79 2°35.51 21.200055 4.821273 34.435271 1.949212
2003-08-20 08:26:20 51°9.81 2°35.49 21.308462 4.820217 34.438059 1.780665
2003-08-20 08:26:26 51°9.83 2°35.47 21.308462 4.820217 34.438059 1.780665
2003-08-20 08:26:30 51°9.84 2°35.46 21.069882 4.819162 34.446478 1.679537
2003-08-20 08:26:34 51°9.86 2°35.45 21.169215 4.817791 34.445045 1.645828
2003-08-20 08:26:40 51°9.88 2°35.43 21.294439 4.815575 34.444161 1.645828
2003-08-20 08:26:46 51°9.9 2°35.41 21.448547 4.814625 34.447808 1.645828
2003-08-20 08:26:50 51°9.91 2°35.4 21.1802 4.813042 34.450322 1.645828
2003-08-20 08:26:54 51°9.92 2°35.39 21.1802 4.813042 34.450322 1.645828
2003-08-20 08:27:00 51°9.94 2°35.37 21.240503 4.811776 34.454255 1.612118
2003-08-20 08:27:04 51°9.96 2°35.35 21.243008 4.810721 34.457631 1.578409
2003-08-20 08:27:10 51°9.98 2°35.34 21.223086 4.809138 34.449991 1.51099
2003-08-20 08:27:14 51°9.99 2°35.32 20.888381 4.808611 34.450832 1.51099
2003-08-20 08:27:20 51°10.01 2°35.3 21.038069 4.807239 34.445451 1.5447
2003-08-20 08:27:26 51°10.03 2°35.28 21.038069 4.807239 34.445451 1.5447
2003-08-20 08:27:30 51°10.04 2°35.27 21.068886 4.806395 34.444877 1.578409
2003-08-20 08:27:34 51°10.06 2°35.26 21.131315 4.806395 34.448832 1.578409
2003-08-20 08:27:40 51°10.08 2°35.24 21.190983 4.805972 34.445437 1.51099
2003-08-20 08:27:46 51°10.1 2°35.23 21.123071 4.806183 34.446005 1.376153
2003-08-20 08:27:50 51°10.11 2°35.22 21.158548 4.804601 34.43723 1.275024
2003-08-20 08:27:54 51°10.12 2°35.21 21.158548 4.804601 34.43723 1.275024
2003-08-20 08:28:00 51°10.15 2°35.2 21.128129 4.804178 34.437225 1.241315
2003-08-20 08:28:04 51°10.16 2°35.19 21.004567 4.803334 34.43439 1.241315
2003-08-20 08:28:10 51°10.18 2°35.18 21.234857 4.80249 34.430425 1.241315
2003-08-20 08:28:14 51°10.2 2°35.18 21.138204 4.802279 34.431552 1.241315
2003-08-20 08:28:20 51°10.22 2°35.18 21.167623 4.801857 34.430417 1.241315
2003-08-20 08:28:26 51°10.24 2°35.18 21.167623 4.801857 34.430417 1.241315
2003-08-20 08:28:30 51°10.26 2°35.18 21.333245 4.801857 34.429852 1.241315
2003-08-20 08:28:34 51°10.27 2°35.18 21.241736 4.801751 34.429003 1.241315
2003-08-20 08:28:40 51°10.3 2°35.19 21.036315 4.80154 34.42448 1.207606
2003-08-20 08:28:46 51°10.32 2°35.2 21.275683 4.802173 34.429008 1.207606
2003-08-20 08:28:50 51°10.33 2°35.21 21.294081 4.80249 34.43099 1.140187
2003-08-20 08:28:54 51°10.35 2°35.22 21.294081 4.80249 34.43099 1.140187
2003-08-20 08:29:00 51°10.37 2°35.23 20.990443 4.802279 34.428727 1.140187
2003-08-20 08:29:06 51°10.38 2°35.25 21.250443 4.802596 34.428449 1.106477
2003-08-20 08:29:10 51°10.4 2°35.27 20.896932 4.803229 34.432977 1.106477
2003-08-20 08:29:14 51°10.41 2°35.28 21.153652 4.802807 34.435797 1.140187
2003-08-20 08:29:20 51°10.42 2°35.31 21.01434 4.802596 34.439186 1.140187
2003-08-20 08:29:26 51°10.44 2°35.33 21.01434 4.802596 34.439186 1.140187
2003-08-20 08:29:30 51°10.45 2°35.35 21.004806 4.80133 34.439739 1.173896
2003-08-20 08:29:34 51°10.46 2°35.36 21.356749 4.799958 34.437181 1.173896
2003-08-20 08:29:40 51°10.48 2°35.39 21.253583 4.799325 34.436044 1.140187
2003-08-20 08:29:46 51°10.49 2°35.41 21.120482 4.799852 34.440857 1.173896
2003-08-20 08:29:50 51°10.5 2°35.43 21.083392 4.799325 34.440004 1.106477
2003-08-20 08:29:54 51°10.51 2°35.45 21.083392 4.799325 34.440004 1.106477
2003-08-20 08:30:00 51°10.53 2°35.47 21.047439 4.799008 34.442548 1.173896
2003-08-20 08:30:04 51°10.54 2°35.49 21.109608 4.798481 34.443394 1.173896
2003-08-20 08:30:10 51°10.55 2°35.52 21.142703 4.797847 34.443956 1.140187
2003-08-20 08:30:14 51°10.57 2°35.53 21.136611 4.797848 34.447354 1.106477
2003-08-20 08:30:20 51°10.58 2°35.56 21.298372 4.796792 34.445649 1.106477
2003-08-20 08:30:26 51°10.6 2°35.58 21.298372 4.796792 34.445649 1.106477
2003-08-20 08:30:30 51°10.61 2°35.6 21.103274 4.796054 34.443097 1.072768
2003-08-20 08:30:34 51°10.62 2°35.62 21.037072 4.795526 34.441111 1.072768
2003-08-20 08:30:40 51°10.63 2°35.64 21.069643 4.795421 34.44366 1.106477
2003-08-20 08:30:46 51°10.65 2°35.67 21.200731 4.794471 34.437707 1.106477
2003-08-20 08:30:50 51°10.66 2°35.69 21.226745 4.794682 34.441107 1.072768
2003-08-20 08:30:54 51°10.67 2°35.7 21.226745 4.794682 34.441107 1.072768
2003-08-20 08:31:00 51°10.69 2°35.73 21.115145 4.794365 34.441389 1.072768
2003-08-20 08:31:04 51°10.7 2°35.75 21.160658 4.794471 34.442806 1.072768
2003-08-20 08:31:10 51°10.71 2°35.77 21.041578 4.794049 34.440538 1.106477
2003-08-20 08:31:14 51°10.72 2°35.79 21.04425 4.793205 34.4343 1.072768
2003-08-20 08:31:20 51°10.74 2°35.82 21.173554 4.793415 34.430903 1.072768
2003-08-20 08:31:26 51°10.75 2°35.84 21.173554 4.793415 34.430903 1.072768
2003-08-20 08:31:30 51°10.77 2°35.86 21.199418 4.794682 34.43261 1.072768
2003-08-20 08:31:34 51°10.78 2°35.88 20.994273 4.795631 34.430636 1.140187
2003-08-20 08:31:40 51°10.79 2°35.9 21.201407 4.796686 34.425553 1.140187
2003-08-20 08:31:46 51°10.81 2°35.93 21.112596 4.797425 34.426409 1.140187
2003-08-20 08:31:50 51°10.82 2°35.94 21.240742 4.799114 34.434345 1.173896
2003-08-20 08:31:54 51°10.83 2°35.96 21.240742 4.799114 34.434345 1.173896
2003-08-20 08:32:00 51°10.84 2°35.99 21.445454 4.79943 34.434065 1.241315
2003-08-20 08:32:06 51°10.86 2°36.01 21.247223 4.799536 34.431521 1.308734
2003-08-20 08:32:10 51°10.87 2°36.03 21.2135 4.80038 34.432096 1.376153
2003-08-20 08:32:14 51°10.88 2°36.05 21.214813 4.800274 34.421638 1.443571
2003-08-20 08:32:20 51°10.9 2°36.07 21.157991 4.802385 34.434662 1.5447
2003-08-20 08:32:26 51°10.91 2°36.1 21.157991 4.802385 34.434662 1.5447
2003-08-20 08:32:30 51°10.92 2°36.12 21.293167 4.803334 34.43439 1.612118
2003-08-20 08:32:34 51°10.93 2°36.13 21.268569 4.801751 34.419965 1.578409
2003-08-20 08:32:40 51°10.95 2°36.16 21.318909 4.803756 34.432701 1.612118
2003-08-20 08:32:46 51°10.96 2°36.19 21.22583 4.803756 34.432136 1.645828
2003-08-20 08:32:50 51°10.98 2°36.2 21.2275 4.804389 34.436098 1.645828
2003-08-20 08:32:54 51°10.99 2°36.22 21.2275 4.804389 34.436098 1.645828
2003-08-20 08:33:00 51°11 2°36.25 21.356511 4.8046 34.434406 1.645828
2003-08-20 08:33:06 51°11.02 2°36.27 21.200731 4.803967 34.425927 1.645828
2003-08-20 08:33:10 51°11.03 2°36.29 21.273815 4.80555 34.431313 1.612118
2003-08-20 08:33:14 51°11.04 2°36.31 21.109728 4.805339 34.42228 1.612118
2003-08-20 08:33:20 51°11.05 2°36.33 21.37342 4.806183 34.423423 1.578409
2003-08-20 08:33:24 51°11.06 2°36.35 21.37342 4.806183 34.423423 1.578409
2003-08-20 08:33:30 51°11.08 2°36.38 21.232034 4.806922 34.423717 1.578409
2003-08-20 08:33:34 51°11.09 2°36.39 21.316804 4.807449 34.426265 1.578409
2003-08-20 08:33:40 51°11.11 2°36.42 21.239271 4.807555 34.424293 1.578409
2003-08-20 08:33:46 51°11.12 2°36.45 21.103991 4.808505 34.427975 1.612118
2003-08-20 08:33:50 51°11.13 2°36.46 20.925853 4.810615 34.440981 1.578409
2003-08-20 08:33:54 51°11.14 2°36.48 20.925853 4.810615 34.440981 1.578409
2003-08-20 08:34:00 51°11.16 2°36.51 21.174389 4.80956 34.433632 1.5447
2003-08-20 08:34:06 51°11.17 2°36.53 20.905641 4.809665 34.435044 1.443571
2003-08-20 08:34:10 51°11.18 2°36.55 21.133226 4.80861 34.434463 1.376153
2003-08-20 08:34:14 51°11.19 2°36.57 21.127054 4.80861 34.441799 1.241315
2003-08-20 08:34:20 51°11.21 2°36.59 21.031649 4.808716 34.450551 1.140187
2003-08-20 08:34:24 51°11.22 2°36.61 21.031649 4.808716 34.450551 1.140187
2003-08-20 08:34:30 51°11.24 2°36.63 21.135775 4.806183 34.439791 1.106477
2003-08-20 08:34:34 51°11.25 2°36.65 21.3683 4.805761 34.44487 1.072768
2003-08-20 08:34:40 51°11.26 2°36.68 21.240821 4.804917 34.444296 1.072768
2003-08-20 08:34:46 51°11.28 2°36.7 21.018687 4.803018 34.434104 1.039059
2003-08-20 08:34:50 51°11.29 2°36.72 21.091561 4.803018 34.436364 1.039059
2003-08-20 08:34:54 51°11.3 2°36.74 21.091561 4.803018 34.436364 1.039059
2003-08-20 08:35:00 51°11.31 2°36.76 21.067212 4.802596 34.435229 1.039059
2003-08-20 08:35:04 51°11.33 2°36.78 21.171484 4.803545 34.440609 1.039059
2003-08-20 08:35:10 51°11.34 2°36.81 21.311878 4.803545 34.438348 1.039059
2003-08-20 08:35:14 51°11.35 2°36.82 21.191302 4.803545 34.436088 1.039059
2003-08-20 08:35:20 51°11.37 2°36.85 21.166827 4.803229 34.429022 1.005349
2003-08-20 08:35:26 51°11.38 2°36.87 21.166827 4.803229 34.429022 1.005349
2003-08-20 08:35:30 51°11.39 2°36.89 21.341782 4.803967 34.42875 1.039059
2003-08-20 08:35:34 51°11.4 2°36.91 21.200214 4.805234 34.435544 1.039059
2003-08-20 08:35:40 51°11.42 2°36.93 21.151024 4.805761 34.434704 1.005349
2003-08-20 08:35:46 51°11.44 2°36.96 21.263203 4.806394 34.433584 0.97164
2003-08-20 08:35:50 51°11.45 2°36.98 21.109768 4.806394 34.425119 1.039059
2003-08-20 08:35:54 51°11.46 2°37 21.109768 4.806394 34.425119 1.039059
2003-08-20 08:36:00 51°11.47 2°37.02 21.243724 4.808083 34.433044 1.039059
2003-08-20 08:36:06 51°11.49 2°37.05 21.41258 4.809771 34.433635 1.039059
2003-08-20 08:36:10 51°11.5 2°37.06 21.38711 4.809771 34.425742 1.039059
2003-08-20 08:36:14 51°11.51 2°37.08 21.361036 4.812092 34.432548 1.005349
2003-08-20 08:36:20 51°11.53 2°37.11 21.134381 4.81357 34.431449 1.072768
2003-08-20 08:36:26 51°11.54 2°37.13 21.134381 4.81357 34.431449 1.072768
2003-08-20 08:36:30 51°11.55 2°37.15 21.43007 4.814308 34.426678 1.072768
2003-08-20 08:36:34 51°11.56 2°37.17 21.268013 4.815469 34.429798 1.039059
2003-08-20 08:36:40 51°11.58 2°37.19 21.335866 4.815997 34.432342 1.106477
2003-08-20 08:36:46 51°11.59 2°37.22 21.337295 4.81663 34.429542 1.106477
2003-08-20 08:36:50 51°11.61 2°37.24 21.336461 4.818424 34.436614 1.106477
2003-08-20 08:36:54 51°11.62 2°37.25 21.336461 4.818424 34.436614 1.106477
2003-08-20 08:37:00 51°11.63 2°37.28 21.206619 4.817896 34.430133 1.106477
2003-08-20 08:37:06 51°11.65 2°37.31 21.23935 4.81779 34.426474 1.106477
2003-08-20 08:37:10 51°11.66 2°37.32 21.30302 4.818001 34.428166 1.106477
2003-08-20 08:37:14 51°11.67 2°37.34 21.595913 4.818529 34.429022 1.140187
2003-08-20 08:37:20 51°11.68 2°37.37 21.371991 4.818107 34.426763 1.140187
2003-08-20 08:37:24 51°11.69 2°37.38 21.371991 4.818107 34.426763 1.140187
2003-08-20 08:37:30 51°11.71 2°37.41 21.340234 4.818318 34.42733 1.140187
2003-08-20 08:37:34 51°11.72 2°37.43 21.409287 4.818951 34.430157 1.140187
2003-08-20 08:37:40 51°11.74 2°37.45 21.313189 4.818001 34.421981 1.140187
2003-08-20 08:37:46 51°11.75 2°37.48 21.414801 4.818318 34.424519 1.106477
2003-08-20 08:37:50 51°11.76 2°37.5 21.303338 4.817896 34.421135 1.140187
2003-08-20 08:37:54 51°11.77 2°37.51 21.303338 4.817896 34.421135 1.140187
2003-08-20 08:38:00 51°11.79 2°37.54 21.17817 4.819373 34.432416 1.140187
2003-08-20 08:38:06 51°11.8 2°37.57 21.280492 4.817685 34.417195 1.140187
2003-08-20 08:38:10 51°11.81 2°37.58 21.476253 4.818951 34.425096 1.140187
2003-08-20 08:38:14 51°11.82 2°37.6 21.341385 4.818423 34.419743 1.106477
2003-08-20 08:38:20 51°11.84 2°37.63 21.207693 4.819056 34.417512 1.173896
2003-08-20 08:38:26 51°11.86 2°37.65 21.207693 4.819056 34.417512 1.173896
2003-08-20 08:38:30 51°11.87 2°37.67 21.500977 4.818212 34.407938 1.140187
2003-08-20 08:38:34 51°11.88 2°37.69 21.279101 4.818634 34.405143 1.173896
2003-08-20 08:38:40 51°11.89 2°37.71 21.281247 4.819584 34.406014 1.207606
2003-08-20 08:38:44 51°11.9 2°37.73 21.577711 4.818634 34.396723 1.207606
2003-08-20 08:38:50 51°11.92 2°37.76 21.18975 4.817895 34.390806 1.308734
2003-08-20 08:38:54 51°11.93 2°37.77 21.18975 4.817895 34.390806 1.308734
2003-08-20 08:39:00 51°11.95 2°37.8 21.480176 4.817262 34.384613 1.308734
2003-08-20 08:39:04 51°11.96 2°37.82 21.355122 4.815784 34.376147 1.275024
2003-08-20 08:39:10 51°11.97 2°37.84 21.453383 4.815151 34.370515 1.308734
2003-08-20 08:39:14 51°11.98 2°37.86 21.582222 4.816418 34.375048 1.308734
2003-08-20 08:39:20 51°12 2°37.89 21.293604 4.815468 34.366883 1.308734
2003-08-20 08:39:26 51°12.01 2°37.91 21.293604 4.815468 34.366883 1.308734
2003-08-20 08:39:30 51°12.02 2°37.93 21.428444 4.815573 34.366606 1.342443
2003-08-20 08:39:34 51°12.04 2°37.95 21.364728 4.815257 34.36239 1.342443
2003-08-20 08:39:40 51°12.05 2°37.97 21.56188 4.815679 34.364088 1.342443
2003-08-20 08:39:46 51°12.07 2°37.99 21.438317 4.815257 34.360709 1.376153
2003-08-20 08:39:50 51°12.08 2°38.01 21.317439 4.814623 34.353959 1.342443
2003-08-20 08:39:54 51°12.09 2°38.02 21.317439 4.814623 34.353959 1.342443
2003-08-20 08:40:00 51°12.11 2°38.04 21.263958 4.816312 34.363553 1.409862
2003-08-20 08:40:06 51°12.13 2°38.06 21.400441 4.817156 34.36863 1.376153
2003-08-20 08:40:10 51°12.15 2°38.07 21.336938 4.815995 34.356537 1.376153
2003-08-20 08:40:14 51°12.16 2°38.08 21.367546 4.815678 34.354563 1.376153
2003-08-20 08:40:20 51°12.18 2°38.1 21.529614 4.815467 34.350634 1.342443
2003-08-20 08:40:26 51°12.2 2°38.12 21.529614 4.815467 34.350634 1.342443
2003-08-20 08:40:30 51°12.21 2°38.13 21.460954 4.816311 34.348431 1.342443
2003-08-20 08:40:34 51°12.23 2°38.14 21.591481 4.814623 34.331005 1.308734
2003-08-20 08:40:40 51°12.25 2°38.15 21.461866 4.814095 34.322869 1.308734
2003-08-20 08:40:46 51°12.27 2°38.17 21.398061 4.813145 34.309123 1.342443
2003-08-20 08:40:50 51°12.28 2°38.18 21.432687 4.813251 34.308849 1.376153
2003-08-20 08:40:54 51°12.3 2°38.18 21.432687 4.813251 34.308849 1.376153
2003-08-20 08:41:00 51°12.32 2°38.2 21.46793 4.813989 34.315316 1.443571
2003-08-20 08:41:06 51°12.34 2°38.21 21.564572 4.812828 34.304915 1.443571
2003-08-20 08:41:10 51°12.35 2°38.22 21.595082 4.813778 34.313069 1.443571
2003-08-20 08:41:14 51°12.37 2°38.23 21.300438 4.812406 34.303216 1.443571
2003-08-20 08:41:20 51°12.39 2°38.24 21.687797 4.816733 34.3367 1.443571
2003-08-20 08:41:26 51°12.41 2°38.26 21.687797 4.816733 34.3367 1.443571
2003-08-20 08:41:30 51°12.42 2°38.27 21.493807 4.816944 34.337829 1.409862
2003-08-20 08:41:34 51°12.44 2°38.27 21.298054 4.816944 34.335032 1.443571
2003-08-20 08:41:40 51°12.46 2°38.29 21.363497 4.816628 34.330264 1.477281
2003-08-20 08:41:46 51°12.48 2°38.3 21.43122 4.815783 34.327986 1.5447
2003-08-20 08:41:50 51°12.49 2°38.31 21.337931 4.815361 34.325169 1.5447
2003-08-20 08:41:54 51°12.51 2°38.32 21.337931 4.815361 34.325169 1.5447
2003-08-20 08:42:00 51°12.53 2°38.33 21.407621 4.815572 34.324621 1.578409
2003-08-20 08:42:04 51°12.54 2°38.34 21.312832 4.815361 34.326846 1.5447
2003-08-20 08:42:10 51°12.56 2°38.35 21.376198 4.815572 34.327975 1.578409
2003-08-20 08:42:14 51°12.58 2°38.35 21.377269 4.815467 34.325454 1.578409
2003-08-20 08:42:20 51°12.6 2°38.37 21.408692 4.815256 34.323766 1.5447
2003-08-20 08:42:26 51°12.62 2°38.38 21.408692 4.815256 34.323766 1.5447
2003-08-20 08:42:30 51°12.64 2°38.39 21.473994 4.815256 34.322089 1.578409
2003-08-20 08:42:34 51°12.65 2°38.4 21.37719 4.815467 34.319305 1.5447
2003-08-20 08:42:40 51°12.67 2°38.41 21.347182 4.814834 34.314242 1.578409
2003-08-20 08:42:46 51°12.69 2°38.42 21.251755 4.815678 34.31764 1.578409
2003-08-20 08:42:50 51°12.71 2°38.43 21.481246 4.814622 34.309761 1.612118
2003-08-20 08:42:54 51°12.72 2°38.44 21.481246 4.814622 34.309761 1.612118
2003-08-20 08:43:00 51°12.74 2°38.45 21.320775 4.815256 34.314265 1.578409
2003-08-20 08:43:06 51°12.76 2°38.46 21.452233 4.815467 34.315952 1.578409
2003-08-20 08:43:10 51°12.78 2°38.47 21.387586 4.815256 34.313706 1.612118
2003-08-20 08:43:14 51°12.79 2°38.47 21.549411 4.81114 34.278573 1.578409
2003-08-20 08:43:20 51°12.81 2°38.49 21.192615 4.809662 34.266764 1.578409
2003-08-20 08:43:26 51°12.83 2°38.5 21.192615 4.809662 34.266764 1.578409
2003-08-20 08:43:30 51°12.85 2°38.51 21.518683 4.811562 34.279156 1.578409
2003-08-20 08:43:34 51°12.86 2°38.52 21.62281 4.814833 34.304746 1.612118
2003-08-20 08:43:40 51°12.88 2°38.53 21.366633 4.813989 34.296323 1.612118
2003-08-20 08:43:46 51°12.91 2°38.54 21.466464 4.814833 34.303629 1.645828
2003-08-20 08:43:50 51°12.92 2°38.55 21.435463 4.814411 34.299697 1.612118
2003-08-20 08:43:54 51°12.93 2°38.56 21.435463 4.814411 34.299697 1.612118
2003-08-20 08:44:00 51°12.96 2°38.57 21.499908 4.814728 34.301669 1.645828
2003-08-20 08:44:06 51°12.98 2°38.58 21.56382 4.814833 34.300279 1.612118
2003-08-20 08:44:10 51°12.99 2°38.59 21.301034 4.814939 34.298889 1.645828
2003-08-20 08:44:14 51°13 2°38.6 21.468604 4.814833 34.296372 1.645828
2003-08-20 08:44:20 51°13.03 2°38.61 21.476055 4.814728 34.291622 1.679537
2003-08-20 08:44:26 51°13.05 2°38.62 21.476055 4.814728 34.291622 1.679537
2003-08-20 08:44:30 51°13.06 2°38.63 21.416506 4.81515 34.295553 1.746956
2003-08-20 08:44:34 51°13.08 2°38.64 21.320497 4.813883 34.283203 1.713247
2003-08-20 08:44:40 51°13.1 2°38.65 21.291459 4.8142 34.286848 1.746956
2003-08-20 08:44:46 51°13.12 2°38.66 21.360044 4.813144 34.277859 1.746956
2003-08-20 08:44:50 51°13.13 2°38.67 21.299723 4.814516 34.28882 1.713247
2003-08-20 08:44:54 51°13.15 2°38.68 21.299723 4.814516 34.28882 1.713247
2003-08-20 08:45:00 51°13.17 2°38.69 21.596229 4.814411 34.281283 1.713247
2003-08-20 08:45:04 51°13.18 2°38.7 21.568569 4.813672 34.27371 1.746956
2003-08-20 08:45:10 51°13.2 2°38.71 21.381317 4.815466 34.285252 1.780665
2003-08-20 08:45:14 51°13.22 2°38.72 21.452907 4.815255 34.280221 1.814375
2003-08-20 08:45:20 51°13.24 2°38.73 21.460875 4.814938 34.276577 1.780665
2003-08-20 08:45:26 51°13.26 2°38.74 21.460875 4.814938 34.276577 1.780665
2003-08-20 08:45:30 51°13.27 2°38.75 21.309574 4.815044 34.275191 1.814375
2003-08-20 08:45:34 51°13.29 2°38.76 21.552103 4.815571 34.274946 1.780665
2003-08-20 08:45:40 51°13.31 2°38.77 21.588633 4.815782 34.272731 1.780665
2003-08-20 08:45:46 51°13.33 2°38.78 21.675706 4.816099 34.270245 1.881794
2003-08-20 08:45:50 51°13.34 2°38.79 21.698583 4.817154 34.27477 1.915503
2003-08-20 08:45:54 51°13.36 2°38.8 21.698583 4.817154 34.27477 1.915503
2003-08-20 08:46:00 51°13.38 2°38.81 21.464165 4.818737 34.281278 1.848084
2003-08-20 08:46:04 51°13.39 2°38.82 21.554636 4.818526 34.270128 1.814375
2003-08-20 08:46:10 51°13.42 2°38.83 21.354764 4.818948 34.267374 1.814375
2003-08-20 08:46:14 51°13.43 2°38.84 21.381912 4.819687 34.267703 1.780665
2003-08-20 08:46:20 51°13.45 2°38.85 21.314738 4.820109 34.271627 1.848084
2003-08-20 08:46:26 51°13.47 2°38.86 21.314738 4.820109 34.271627 1.848084
2003-08-20 08:46:30 51°13.49 2°38.87 21.511118 4.819898 34.273838 1.848084
2003-08-20 08:46:34 51°13.5 2°38.88 21.544145 4.820531 34.2839 1.915503
2003-08-20 08:46:40 51°13.52 2°38.89 21.481563 4.820109 34.283873 1.915503
2003-08-20 08:46:46 51°13.54 2°38.9 21.453462 4.819476 34.283832 1.949212
2003-08-20 08:46:50 51°13.56 2°38.91 21.328202 4.819687 34.289416 1.982922
2003-08-20 08:46:54 51°13.57 2°38.92 21.328202 4.819687 34.289416 1.982922
2003-08-20 08:47:00 51°13.59 2°38.92 21.397981 4.819793 34.290815 1.949212
2003-08-20 08:47:06 51°13.62 2°38.93 21.656339 4.820004 34.293614 1.881794
2003-08-20 08:47:10 51°13.63 2°38.94 21.564651 4.819476 34.291631 1.848084
2003-08-20 08:47:14 51°13.65 2°38.94 21.408137 4.819793 34.292487 1.814375
2003-08-20 08:47:20 51°13.67 2°38.95 21.411271 4.821692 34.30542 1.814375
2003-08-20 08:47:26 51°13.69 2°38.96 21.411271 4.821692 34.30542 1.814375
2003-08-20 08:47:30 51°13.71 2°38.96 21.418965 4.822009 34.306275 1.848084
2003-08-20 08:47:34 51°13.72 2°38.96 21.623957 4.821164 34.29675 1.814375
2003-08-20 08:47:40 51°13.74 2°38.96 21.530683 4.821798 34.297347 1.881794
2003-08-20 08:47:46 51°13.77 2°38.96 21.59797 4.822958 34.303825 1.881794
2003-08-20 08:47:50 51°13.78 2°38.96 21.800002 4.82338 34.306079 1.881794
2003-08-20 08:47:54 51°13.8 2°38.96 21.800002 4.82338 34.306079 1.881794
2003-08-20 08:48:00 51°13.82 2°38.97 21.48085 4.822536 34.295443 1.848084
2003-08-20 08:48:06 51°13.84 2°38.97 21.517654 4.824647 34.30727 1.848084
2003-08-20 08:48:10 51°13.86 2°38.97 21.55143 4.823802 34.29608 1.814375
2003-08-20 08:48:14 51°13.87 2°38.97 21.812546 4.824963 34.298659 1.881794
2003-08-20 08:48:20 51°13.89 2°38.97 21.515673 4.825174 34.298116 1.848084
2003-08-20 08:48:26 51°13.92 2°38.97 21.515673 4.825174 34.298116 1.848084
2003-08-20 08:48:30 51°13.93 2°38.97 21.608176 4.82528 34.295062 1.814375
2003-08-20 08:48:34 51°13.95 2°38.97 21.537731 4.825702 34.29342 1.814375
2003-08-20 08:48:40 51°13.97 2°38.96 21.571854 4.826229 34.294846 1.814375
2003-08-20 08:48:46 51°13.99 2°38.96 21.546204 4.826863 34.296556 1.881794
2003-08-20 08:48:50 51°14.01 2°38.95 21.559743 4.827179 34.295742 1.881794
2003-08-20 08:48:54 51°14.02 2°38.94 21.559743 4.827179 34.295742 1.881794
2003-08-20 08:49:00 51°14.04 2°38.93 21.471378 4.826546 34.294588 1.949212
2003-08-20 08:49:04 51°14.05 2°38.92 21.538404 4.827074 34.298795 1.982922
2003-08-20 08:49:10 51°14.07 2°38.9 21.508266 4.826124 34.291779 1.982922
2003-08-20 08:49:14 51°14.09 2°38.89 21.669145 4.827285 34.304929 1.915503
2003-08-20 08:49:20 51°14.1 2°38.87 21.637204 4.827179 34.301862 1.848084
2003-08-20 08:49:26 51°14.12 2°38.84 21.637204 4.827179 34.301862 1.848084
2003-08-20 08:49:30 51°14.13 2°38.83 21.440062 4.828129 34.303313 1.848084
2003-08-20 08:49:34 51°14.14 2°38.81 21.336223 4.829079 34.303653 1.780665
2003-08-20 08:49:40 51°14.16 2°38.78 21.557685 4.829923 34.308157 1.848084
2003-08-20 08:49:46 51°14.18 2°38.76 21.713633 4.829923 34.305932 1.780665
2003-08-20 08:49:50 51°14.18 2°38.74 21.65037 4.829712 34.302582 1.780665
2003-08-20 08:49:54 51°14.19 2°38.72 21.65037 4.829712 34.302582 1.780665